FDX2901 LFPG-KEWR
Flight info
| Callsign | FDX2901 |
|---|---|
| Flight time | N/A |
| Altitude | 30000 |
| Route | ATREX DCT VESAN DCT RATUK DCT SOVAT L613 SANDY L722 ICTAM L179 SAWPE DCT OZZIL DCT ARPAK DCT FELCA DCT NICXI DCT OFSOX DCT SLANY DCT DIMUS DCT ABAGU DCT TIPUR DCT NEBIN/M082F320 DCT 5330N02000W 5330N03000W 53N040W 52N050W DCT TUDEP/N0474F320 DCT RENNY DCT KJOHN DCT HANAA FLOSI4 |
| Aircraft | B77L/H-SDE1E2E3FGHIJ2J3J4J5M1RWXY/LB1D1 |
Departure
| Time | N/A |
|---|---|
| Airport | Charles de Gaulle International Airport (LFPG) |
Arrival
| Time | 2026-05-04 03:45 |
|---|---|
| Airport | Newark Liberty International Airport (KEWR) |
| Time | Latitude | Longitude | Altitude | Speed | Heading |
|---|---|---|---|---|---|
| 2026-05-03 20:15 | 50.84128 | 1.37918 | 29877 ft | 493 kts | 314° |
| 2026-05-03 20:15 | 50.87015 | 1.33945 | 29902 ft | 492 kts | 314° |
| 2026-05-03 20:16 | 50.90135 | 1.29619 | 29639 ft | 496 kts | 313° |
| 2026-05-03 20:16 | 50.92702 | 1.26013 | 29773 ft | 490 kts | 313° |
| 2026-05-03 20:16 | 50.95218 | 1.22429 | 29960 ft | 484 kts | 313° |
| 2026-05-03 20:16 | 50.97702 | 1.18839 | 30142 ft | 483 kts | 312° |
| 2026-05-03 20:17 | 51.00173 | 1.15215 | 30338 ft | 485 kts | 312° |
| 2026-05-03 20:17 | 51.02640 | 1.11547 | 30535 ft | 486 kts | 312° |
| 2026-05-03 20:17 | 51.05085 | 1.07834 | 30722 ft | 487 kts | 311° |
| 2026-05-03 20:17 | 51.07512 | 1.04071 | 30914 ft | 488 kts | 310° |
| 2026-05-03 20:18 | 51.09921 | 1.00272 | 31102 ft | 489 kts | 310° |
| 2026-05-03 20:18 | 51.12313 | 0.96428 | 31273 ft | 490 kts | 309° |
| 2026-05-03 20:18 | 51.14597 | 0.92433 | 31202 ft | 487 kts | 301° |
| 2026-05-03 20:18 | 51.16120 | 0.87702 | 30933 ft | 474 kts | 281° |
| 2026-05-03 20:19 | 51.16529 | 0.82617 | 30684 ft | 457 kts | 263° |
| 2026-05-03 20:19 | 51.16163 | 0.77652 | 30470 ft | 450 kts | 257° |
| 2026-05-03 20:19 | 51.15693 | 0.72719 | 30242 ft | 452 kts | 260° |
| 2026-05-03 20:19 | 51.15611 | 0.67704 | 30094 ft | 455 kts | 269° |
| 2026-05-03 20:20 | 51.16034 | 0.62673 | 30061 ft | 462 kts | 277° |
| 2026-05-03 20:20 | 51.16822 | 0.57674 | 30274 ft | 469 kts | 282° |
| 2026-05-03 20:20 | 51.17864 | 0.52715 | 30537 ft | 474 kts | 285° |
| 2026-05-03 20:20 | 51.19018 | 0.47777 | 30803 ft | 476 kts | 286° |
| 2026-05-03 20:21 | 51.20229 | 0.42855 | 31050 ft | 477 kts | 286° |
| 2026-05-03 20:21 | 51.21348 | 0.37894 | 31378 ft | 475 kts | 284° |
| 2026-05-03 20:21 | 51.22378 | 0.32904 | 31766 ft | 473 kts | 283° |
| 2026-05-03 20:21 | 51.23405 | 0.27913 | 31917 ft | 475 kts | 283° |
| 2026-05-03 20:22 | 51.24444 | 0.22916 | 31907 ft | 474 kts | 284° |
| 2026-05-03 20:22 | 51.26526 | 0.12984 | 31906 ft | 469 kts | 284° |
| 2026-05-03 20:23 | 51.28591 | 0.03108 | 31926 ft | 469 kts | 284° |
| 2026-05-03 20:23 | 51.30644 | -0.06785 | 31917 ft | 470 kts | 284° |
| 2026-05-03 20:24 | 51.32697 | -0.16729 | 31917 ft | 472 kts | 284° |
| 2026-05-03 20:24 | 51.34754 | -0.26736 | 31912 ft | 474 kts | 284° |
| 2026-05-03 20:25 | 51.36808 | -0.36780 | 31913 ft | 476 kts | 284° |
| 2026-05-03 20:25 | 51.38858 | -0.46863 | 31910 ft | 477 kts | 284° |
| 2026-05-03 20:26 | 51.40881 | -0.56864 | 31907 ft | 477 kts | 284° |
| 2026-05-03 20:26 | 51.42920 | -0.66976 | 31906 ft | 476 kts | 284° |
| 2026-05-03 20:27 | 51.44940 | -0.77059 | 31906 ft | 475 kts | 284° |
| 2026-05-03 20:27 | 51.46953 | -0.87161 | 31908 ft | 474 kts | 283° |
| 2026-05-03 20:28 | 51.48956 | -0.97265 | 31904 ft | 473 kts | 283° |
| 2026-05-03 20:28 | 51.50815 | -1.06690 | 31890 ft | 473 kts | 283° |
| 2026-05-03 20:29 | 51.52704 | -1.16436 | 31889 ft | 472 kts | 281° |
| 2026-05-03 20:29 | 51.53945 | -1.26147 | 31893 ft | 469 kts | 276° |
| 2026-05-03 20:30 | 51.55073 | -1.36097 | 31899 ft | 470 kts | 276° |
| 2026-05-03 20:30 | 51.56200 | -1.45799 | 31910 ft | 470 kts | 277° |
| 2026-05-03 20:31 | 51.57222 | -1.54511 | 31920 ft | 470 kts | 277° |
| 2026-05-03 20:31 | 51.58295 | -1.63726 | 31911 ft | 471 kts | 276° |
| 2026-05-03 20:32 | 51.59183 | -1.74134 | 31915 ft | 469 kts | 272° |
| 2026-05-03 20:32 | 51.59872 | -1.84192 | 31909 ft | 470 kts | 272° |
| 2026-05-03 20:33 | 51.60572 | -1.94368 | 31905 ft | 470 kts | 272° |
| 2026-05-03 20:33 | 51.61302 | -2.04818 | 31907 ft | 470 kts | 273° |
| 2026-05-03 20:34 | 51.62024 | -2.15225 | 31901 ft | 470 kts | 272° |
| 2026-05-03 20:34 | 51.62735 | -2.25618 | 31900 ft | 470 kts | 272° |
| 2026-05-03 20:35 | 51.63421 | -2.35811 | 31900 ft | 470 kts | 272° |
| 2026-05-03 20:35 | 51.64270 | -2.44889 | 31887 ft | 473 kts | 279° |
| 2026-05-03 20:36 | 51.66080 | -2.54319 | 31893 ft | 476 kts | 284° |
| 2026-05-03 20:36 | 51.68061 | -2.64058 | 31896 ft | 475 kts | 284° |
| 2026-05-03 20:37 | 51.70074 | -2.74215 | 31905 ft | 475 kts | 284° |
| 2026-05-03 20:37 | 51.72060 | -2.84377 | 31912 ft | 476 kts | 284° |
| 2026-05-03 20:38 | 51.74040 | -2.94561 | 31907 ft | 476 kts | 284° |
| 2026-05-03 20:38 | 51.75685 | -3.03049 | 31905 ft | 477 kts | 284° |
| 2026-05-03 20:39 | 51.77656 | -3.13272 | 31907 ft | 477 kts | 284° |
| 2026-05-03 20:39 | 51.79621 | -3.23511 | 31908 ft | 478 kts | 284° |
| 2026-05-03 20:40 | 51.81339 | -3.33855 | 31905 ft | 475 kts | 276° |
| 2026-05-03 20:40 | 51.81968 | -3.44435 | 31915 ft | 473 kts | 271° |
| 2026-05-03 20:41 | 51.82614 | -3.55029 | 31915 ft | 475 kts | 276° |
| 2026-05-03 20:41 | 51.83960 | -3.65530 | 31922 ft | 477 kts | 279° |
| 2026-05-03 20:42 | 51.85361 | -3.76035 | 31912 ft | 478 kts | 279° |
| 2026-05-03 20:42 | 51.86729 | -3.86560 | 31910 ft | 479 kts | 279° |
| 2026-05-03 20:43 | 51.88074 | -3.97107 | 31923 ft | 478 kts | 279° |
| 2026-05-03 20:43 | 51.89407 | -4.07652 | 31920 ft | 478 kts | 279° |
| 2026-05-03 20:44 | 51.90731 | -4.18207 | 31910 ft | 478 kts | 279° |
| 2026-05-03 20:44 | 51.92045 | -4.28750 | 31909 ft | 478 kts | 278° |
| 2026-05-03 20:45 | 51.93349 | -4.39300 | 31920 ft | 477 kts | 278° |
| 2026-05-03 20:45 | 51.94643 | -4.49845 | 31921 ft | 477 kts | 278° |
| 2026-05-03 20:46 | 51.95925 | -4.60400 | 31918 ft | 477 kts | 278° |
| 2026-05-03 20:46 | 51.97202 | -4.70968 | 31919 ft | 478 kts | 278° |
| 2026-05-03 20:47 | 51.98469 | -4.81544 | 31921 ft | 478 kts | 278° |
| 2026-05-03 20:47 | 51.99729 | -4.92150 | 31915 ft | 479 kts | 278° |
| 2026-05-03 20:48 | 52.00985 | -5.02789 | 31928 ft | 480 kts | 279° |
| 2026-05-03 20:48 | 52.02215 | -5.13438 | 31926 ft | 482 kts | 279° |
| 2026-05-03 20:49 | 52.03721 | -5.24045 | 31917 ft | 484 kts | 287° |
| 2026-05-03 20:49 | 52.05840 | -5.34223 | 31938 ft | 485 kts | 288° |
| 2026-05-03 20:50 | 52.07953 | -5.44417 | 31930 ft | 486 kts | 287° |
| 2026-05-03 20:50 | 52.09792 | -5.53517 | 31949 ft | 487 kts | 287° |
| 2026-05-03 20:51 | 52.11832 | -5.63716 | 31947 ft | 489 kts | 287° |
| 2026-05-03 20:51 | 52.13894 | -5.74076 | 31933 ft | 490 kts | 287° |
| 2026-05-03 20:52 | 52.15987 | -5.84627 | 31952 ft | 489 kts | 287° |
| 2026-05-03 20:52 | 52.18067 | -5.95098 | 31954 ft | 489 kts | 287° |
| 2026-05-03 20:53 | 52.20184 | -6.05720 | 31955 ft | 489 kts | 287° |
| 2026-05-03 20:53 | 52.22268 | -6.16274 | 31961 ft | 489 kts | 287° |
| 2026-05-03 20:54 | 52.24339 | -6.26820 | 31963 ft | 488 kts | 287° |
| 2026-05-03 20:54 | 52.27400 | -6.42572 | 31967 ft | 487 kts | 287° |
| 2026-05-03 20:55 | 52.29436 | -6.53115 | 31976 ft | 487 kts | 287° |
| 2026-05-03 20:55 | 52.31475 | -6.63740 | 31972 ft | 487 kts | 287° |
| 2026-05-03 20:56 | 52.33493 | -6.74297 | 31970 ft | 487 kts | 287° |
| 2026-05-03 20:56 | 52.35486 | -6.84795 | 31972 ft | 487 kts | 287° |
| 2026-05-03 20:57 | 52.37483 | -6.95370 | 31973 ft | 486 kts | 287° |
| 2026-05-03 20:57 | 52.39472 | -7.05954 | 31973 ft | 486 kts | 287° |
| 2026-05-03 20:58 | 52.41448 | -7.16532 | 31968 ft | 485 kts | 287° |
| 2026-05-03 20:58 | 52.43410 | -7.27107 | 31974 ft | 485 kts | 287° |
| 2026-05-03 20:59 | 52.45368 | -7.37711 | 31971 ft | 486 kts | 287° |
| 2026-05-03 20:59 | 52.47316 | -7.48325 | 31975 ft | 486 kts | 287° |
| 2026-05-03 21:00 | 52.48944 | -7.57232 | 31971 ft | 487 kts | 287° |
| 2026-05-03 21:00 | 52.51193 | -7.69604 | 31976 ft | 487 kts | 287° |
| 2026-05-03 21:01 | 52.53126 | -7.80274 | 31974 ft | 487 kts | 287° |
| 2026-05-03 21:01 | 52.55050 | -7.90943 | 31978 ft | 487 kts | 287° |
| 2026-05-03 21:02 | 52.56963 | -8.01621 | 31981 ft | 487 kts | 287° |
| 2026-05-03 21:02 | 52.58868 | -8.12313 | 31982 ft | 488 kts | 287° |
| 2026-05-03 21:03 | 52.60687 | -8.23082 | 31983 ft | 488 kts | 286° |
| 2026-05-03 21:03 | 52.62425 | -8.33887 | 31985 ft | 488 kts | 286° |
| 2026-05-03 21:04 | 52.64154 | -8.44691 | 31995 ft | 488 kts | 286° |
| 2026-05-03 21:04 | 52.65889 | -8.55502 | 31988 ft | 488 kts | 286° |
| 2026-05-03 21:05 | 52.67619 | -8.66313 | 31991 ft | 488 kts | 286° |
| 2026-05-03 21:05 | 52.69341 | -8.77139 | 31990 ft | 488 kts | 287° |
| 2026-05-03 21:06 | 52.71050 | -8.87959 | 31990 ft | 488 kts | 287° |
| 2026-05-03 21:06 | 52.72748 | -8.98785 | 31993 ft | 488 kts | 287° |
| 2026-05-03 21:07 | 52.74438 | -9.09621 | 31992 ft | 488 kts | 287° |
| 2026-05-03 21:07 | 52.76118 | -9.20477 | 31988 ft | 488 kts | 287° |
| 2026-05-03 21:08 | 52.77780 | -9.31287 | 31994 ft | 488 kts | 287° |
| 2026-05-03 21:08 | 52.79393 | -9.41842 | 31981 ft | 489 kts | 287° |
| 2026-05-03 21:09 | 52.81048 | -9.52745 | 31980 ft | 490 kts | 287° |
| 2026-05-03 21:09 | 52.82575 | -9.62877 | 31977 ft | 490 kts | 287° |
| 2026-05-03 21:10 | 52.84217 | -9.73840 | 31948 ft | 491 kts | 288° |
| 2026-05-03 21:10 | 52.85849 | -9.84814 | 31948 ft | 492 kts | 288° |
| 2026-05-03 21:11 | 52.87475 | -9.95811 | 31944 ft | 492 kts | 288° |
| 2026-05-03 21:11 | 52.89091 | -10.06827 | 31943 ft | 493 kts | 288° |
| 2026-05-03 21:12 | 52.90699 | -10.17879 | 31949 ft | 494 kts | 288° |
| 2026-05-03 21:12 | 52.92300 | -10.28949 | 31942 ft | 494 kts | 288° |
| 2026-05-03 21:13 | 52.93889 | -10.40028 | 31947 ft | 494 kts | 288° |
| 2026-05-03 21:13 | 52.95469 | -10.51115 | 31951 ft | 494 kts | 288° |
| 2026-05-03 21:14 | 52.97037 | -10.62202 | 31954 ft | 494 kts | 288° |
| 2026-05-03 21:14 | 52.98596 | -10.73290 | 31954 ft | 494 kts | 288° |
| 2026-05-03 21:15 | 53.00147 | -10.84396 | 31953 ft | 493 kts | 288° |
| 2026-05-03 21:15 | 53.01682 | -10.95503 | 31954 ft | 494 kts | 288° |
| 2026-05-03 21:16 | 53.03210 | -11.06642 | 31957 ft | 494 kts | 288° |
| 2026-05-03 21:16 | 53.04728 | -11.17788 | 31955 ft | 495 kts | 288° |
| 2026-05-03 21:17 | 53.05985 | -11.27062 | 31955 ft | 495 kts | 288° |
| 2026-05-03 21:17 | 53.07741 | -11.40104 | 31954 ft | 495 kts | 288° |
| 2026-05-03 21:18 | 53.09231 | -11.51288 | 31952 ft | 496 kts | 288° |
| 2026-05-03 21:18 | 53.10710 | -11.62485 | 31956 ft | 495 kts | 288° |
| 2026-05-03 21:19 | 53.12175 | -11.73652 | 31954 ft | 495 kts | 287° |
| 2026-05-03 21:19 | 53.13635 | -11.84849 | 31952 ft | 495 kts | 287° |
| 2026-05-03 21:20 | 53.15078 | -11.96052 | 31953 ft | 494 kts | 287° |
| 2026-05-03 21:20 | 53.16511 | -12.07249 | 31954 ft | 494 kts | 288° |
| 2026-05-03 21:21 | 53.17691 | -12.16519 | 31953 ft | 494 kts | 287° |
| 2026-05-03 21:21 | 53.19109 | -12.27739 | 31954 ft | 494 kts | 287° |
| 2026-05-03 21:22 | 53.20514 | -12.38964 | 31953 ft | 495 kts | 287° |
| 2026-05-03 21:22 | 53.21910 | -12.50211 | 31956 ft | 495 kts | 287° |
| 2026-05-03 21:23 | 53.23300 | -12.61470 | 31952 ft | 495 kts | 287° |
| 2026-05-03 21:23 | 53.24674 | -12.72740 | 31951 ft | 496 kts | 287° |
| 2026-05-03 21:24 | 53.26037 | -12.83989 | 31954 ft | 495 kts | 287° |
| 2026-05-03 21:24 | 53.27383 | -12.95203 | 31952 ft | 495 kts | 287° |
| 2026-05-03 21:25 | 53.28727 | -13.06487 | 31955 ft | 495 kts | 287° |
| 2026-05-03 21:25 | 53.30061 | -13.17777 | 31953 ft | 495 kts | 287° |
| 2026-05-03 21:26 | 53.31377 | -13.29010 | 31953 ft | 495 kts | 287° |
| 2026-05-03 21:26 | 53.32689 | -13.40326 | 31954 ft | 495 kts | 287° |
| 2026-05-03 21:27 | 53.33988 | -13.51630 | 31954 ft | 495 kts | 287° |
| 2026-05-03 21:27 | 53.35275 | -13.62915 | 31950 ft | 494 kts | 287° |
| 2026-05-03 21:28 | 53.36513 | -13.73857 | 31954 ft | 494 kts | 286° |
| 2026-05-03 21:28 | 53.37779 | -13.85148 | 31954 ft | 493 kts | 286° |
| 2026-05-03 21:29 | 53.39032 | -13.96441 | 31951 ft | 493 kts | 286° |
| 2026-05-03 21:29 | 53.40269 | -14.07686 | 31954 ft | 493 kts | 286° |
| 2026-05-03 21:30 | 53.41486 | -14.18857 | 31952 ft | 492 kts | 286° |
| 2026-05-03 21:30 | 53.42689 | -14.29999 | 31953 ft | 493 kts | 286° |
| 2026-05-03 21:31 | 53.43900 | -14.41307 | 31953 ft | 493 kts | 285° |
| 2026-05-03 21:31 | 53.45102 | -14.52627 | 31954 ft | 493 kts | 285° |
| 2026-05-03 21:32 | 53.46290 | -14.63944 | 31953 ft | 493 kts | 285° |
| 2026-05-03 21:32 | 53.47455 | -14.75158 | 31955 ft | 494 kts | 285° |
| 2026-05-03 21:33 | 53.48633 | -14.86585 | 31952 ft | 494 kts | 285° |
| 2026-05-03 21:33 | 53.49789 | -14.97940 | 31953 ft | 495 kts | 284° |
| 2026-05-03 21:34 | 53.50295 | -15.09067 | 31928 ft | 501 kts | 277° |
| 2026-05-03 21:34 | 53.50456 | -15.20309 | 31957 ft | 501 kts | 276° |
| 2026-05-03 21:35 | 53.50611 | -15.31018 | 31955 ft | 500 kts | 276° |
| 2026-05-03 21:35 | 53.50778 | -15.41195 | 31952 ft | 500 kts | 276° |
| 2026-05-03 21:36 | 53.50976 | -15.52675 | 31956 ft | 499 kts | 276° |
| 2026-05-03 21:36 | 53.51165 | -15.64299 | 31954 ft | 499 kts | 276° |
| 2026-05-03 21:37 | 53.51339 | -15.75888 | 31954 ft | 497 kts | 276° |
| 2026-05-03 21:37 | 53.51502 | -15.87500 | 31953 ft | 497 kts | 276° |
| 2026-05-03 21:38 | 53.51653 | -15.99069 | 31953 ft | 496 kts | 276° |
| 2026-05-03 21:38 | 53.51793 | -16.10595 | 31956 ft | 495 kts | 275° |
| 2026-05-03 21:39 | 53.51921 | -16.22069 | 31954 ft | 495 kts | 275° |
| 2026-05-03 21:39 | 53.52040 | -16.33625 | 31953 ft | 495 kts | 275° |
| 2026-05-03 21:40 | 53.52145 | -16.45218 | 31952 ft | 496 kts | 275° |
| 2026-05-03 21:40 | 53.52242 | -16.56810 | 31956 ft | 496 kts | 275° |
| 2026-05-03 21:41 | 53.52325 | -16.67953 | 31954 ft | 497 kts | 275° |
| 2026-05-03 21:41 | 53.52398 | -16.79576 | 31961 ft | 497 kts | 275° |
| 2026-05-03 21:42 | 53.52459 | -16.91190 | 31962 ft | 498 kts | 275° |
| 2026-05-03 21:42 | 53.52514 | -17.02822 | 31958 ft | 497 kts | 274° |
| 2026-05-03 21:43 | 53.52553 | -17.14432 | 31963 ft | 497 kts | 274° |
| 2026-05-03 21:43 | 53.52581 | -17.26036 | 31961 ft | 496 kts | 274° |
| 2026-05-03 21:44 | 53.52597 | -17.37632 | 31964 ft | 496 kts | 274° |
| 2026-05-03 21:44 | 53.52603 | -17.49223 | 31963 ft | 496 kts | 274° |
| 2026-05-03 21:45 | 53.52597 | -17.60803 | 31965 ft | 495 kts | 274° |
| 2026-05-03 21:45 | 53.52582 | -17.72355 | 31962 ft | 495 kts | 273° |
| 2026-05-03 21:46 | 53.52558 | -17.83910 | 31962 ft | 494 kts | 273° |
| 2026-05-03 21:46 | 53.52519 | -17.95458 | 31964 ft | 494 kts | 273° |
| 2026-05-03 21:47 | 53.52469 | -18.06983 | 31964 ft | 493 kts | 273° |
| 2026-05-03 21:47 | 53.52410 | -18.18446 | 31962 ft | 493 kts | 272° |
| 2026-05-03 21:48 | 53.52338 | -18.29956 | 31962 ft | 493 kts | 272° |
| 2026-05-03 21:48 | 53.52256 | -18.41484 | 31964 ft | 493 kts | 272° |
| 2026-05-03 21:49 | 53.52163 | -18.52989 | 31964 ft | 493 kts | 272° |
| 2026-05-03 21:49 | 53.52057 | -18.64505 | 31964 ft | 493 kts | 272° |
| 2026-05-03 21:50 | 53.51941 | -18.76041 | 31965 ft | 493 kts | 272° |
| 2026-05-03 21:50 | 53.51817 | -18.87572 | 31964 ft | 494 kts | 272° |
| 2026-05-03 21:51 | 53.51679 | -18.99108 | 31962 ft | 493 kts | 271° |
| 2026-05-03 21:51 | 53.51529 | -19.10627 | 31963 ft | 493 kts | 271° |
| 2026-05-03 21:52 | 53.51371 | -19.22135 | 31965 ft | 493 kts | 271° |
| 2026-05-03 21:52 | 53.51199 | -19.33635 | 31965 ft | 492 kts | 271° |
| 2026-05-03 21:53 | 53.51016 | -19.45113 | 31963 ft | 492 kts | 271° |
| 2026-05-03 21:53 | 53.50827 | -19.56580 | 31961 ft | 490 kts | 270° |
| 2026-05-03 21:54 | 53.50623 | -19.68027 | 31964 ft | 490 kts | 270° |
| 2026-05-03 21:54 | 53.50410 | -19.79457 | 31962 ft | 489 kts | 270° |
| 2026-05-03 21:55 | 53.50187 | -19.90869 | 31962 ft | 489 kts | 270° |
| 2026-05-03 21:55 | 53.50034 | -20.02267 | 31963 ft | 487 kts | 274° |
| 2026-05-03 21:56 | 53.50489 | -20.13589 | 31968 ft | 486 kts | 276° |
| 2026-05-03 21:56 | 53.50991 | -20.24902 | 31965 ft | 486 kts | 276° |
| 2026-05-03 21:57 | 53.51456 | -20.36221 | 31967 ft | 486 kts | 276° |
| 2026-05-03 21:57 | 53.51894 | -20.47554 | 31972 ft | 486 kts | 275° |
| 2026-05-03 21:58 | 53.52320 | -20.58893 | 31971 ft | 486 kts | 275° |
| 2026-05-03 21:58 | 53.52729 | -20.70236 | 31972 ft | 486 kts | 275° |
| 2026-05-03 21:59 | 53.53131 | -20.81573 | 31973 ft | 486 kts | 275° |
| 2026-05-03 21:59 | 53.53521 | -20.92916 | 31971 ft | 486 kts | 275° |
| 2026-05-03 22:00 | 53.53897 | -21.04160 | 31968 ft | 485 kts | 275° |
| 2026-05-03 22:00 | 53.54267 | -21.15470 | 31974 ft | 484 kts | 275° |
| 2026-05-03 22:01 | 53.54623 | -21.26779 | 31969 ft | 484 kts | 274° |
| 2026-05-03 22:01 | 53.54970 | -21.38068 | 31972 ft | 483 kts | 274° |
| 2026-05-03 22:02 | 53.55305 | -21.49333 | 31975 ft | 482 kts | 274° |
| 2026-05-03 22:02 | 53.55631 | -21.60588 | 31974 ft | 482 kts | 274° |
| 2026-05-03 22:03 | 53.55943 | -21.71832 | 31970 ft | 481 kts | 274° |
| 2026-05-03 22:03 | 53.56245 | -21.83064 | 31970 ft | 481 kts | 274° |
| 2026-05-03 22:04 | 53.56539 | -21.94293 | 31970 ft | 480 kts | 273° |
| 2026-05-03 22:04 | 53.56819 | -22.05506 | 31972 ft | 480 kts | 273° |
| 2026-05-03 22:05 | 53.57091 | -22.16729 | 31975 ft | 480 kts | 273° |
| 2026-05-03 22:05 | 53.57349 | -22.27928 | 31970 ft | 479 kts | 273° |
| 2026-05-03 22:06 | 53.57598 | -22.39128 | 31970 ft | 479 kts | 273° |
| 2026-05-03 22:06 | 53.57838 | -22.50395 | 32300 ft | 482 kts | 273° |
| 2026-05-03 22:07 | 53.57954 | -22.56007 | 32800 ft | 478 kts | 273° |
| 2026-05-03 22:07 | 53.58030 | -22.59778 | 33127 ft | 476 kts | 273° |
| 2026-05-03 22:07 | 53.58138 | -22.65249 | 33536 ft | 474 kts | 273° |
| 2026-05-03 22:07 | 53.58244 | -22.70777 | 33856 ft | 473 kts | 273° |
| 2026-05-03 22:08 | 53.58453 | -22.81886 | 33971 ft | 475 kts | 273° |
| 2026-05-03 22:08 | 53.58651 | -22.93026 | 33978 ft | 471 kts | 273° |
| 2026-05-03 22:09 | 53.58833 | -23.03958 | 33981 ft | 469 kts | 273° |
| 2026-05-03 22:10 | 53.59089 | -23.20430 | 34024 ft | 466 kts | 273° |
| 2026-05-03 22:10 | 53.59249 | -23.31359 | 34027 ft | 467 kts | 273° |
| 2026-05-03 22:11 | 53.59399 | -23.42288 | 34045 ft | 468 kts | 273° |
| 2026-05-03 22:11 | 53.59538 | -23.53195 | 34049 ft | 470 kts | 272° |
| 2026-05-03 22:12 | 53.59667 | -23.64193 | 34047 ft | 470 kts | 272° |
| 2026-05-03 22:12 | 53.59786 | -23.75145 | 34048 ft | 471 kts | 272° |
| 2026-05-03 22:13 | 53.59896 | -23.86172 | 34045 ft | 471 kts | 272° |
| 2026-05-03 22:13 | 53.59995 | -23.97200 | 34047 ft | 471 kts | 272° |
| 2026-05-03 22:14 | 53.60085 | -24.08209 | 34048 ft | 470 kts | 272° |
| 2026-05-03 22:14 | 53.60163 | -24.19206 | 34037 ft | 469 kts | 272° |
| 2026-05-03 22:15 | 53.60232 | -24.30168 | 34048 ft | 468 kts | 272° |
| 2026-05-03 22:15 | 53.60288 | -24.40743 | 34047 ft | 467 kts | 272° |
| 2026-05-03 22:16 | 53.60338 | -24.51670 | 34044 ft | 467 kts | 272° |
| 2026-05-03 22:16 | 53.60376 | -24.62599 | 34047 ft | 467 kts | 271° |
| 2026-05-03 22:17 | 53.60404 | -24.73515 | 34057 ft | 466 kts | 271° |
| 2026-05-03 22:17 | 53.60425 | -24.83816 | 34056 ft | 466 kts | 271° |
| 2026-05-03 22:18 | 53.60435 | -24.93824 | 34055 ft | 466 kts | 271° |
| 2026-05-03 22:18 | 53.60435 | -25.04481 | 34057 ft | 466 kts | 271° |
| 2026-05-03 22:19 | 53.60426 | -25.13391 | 34057 ft | 467 kts | 271° |
| 2026-05-03 22:19 | 53.60411 | -25.23003 | 34055 ft | 467 kts | 271° |
| 2026-05-03 22:20 | 53.60389 | -25.32577 | 34056 ft | 467 kts | 270° |
| 2026-05-03 22:20 | 53.60361 | -25.41036 | 33996 ft | 462 kts | 270° |
| 2026-05-03 22:20 | 53.60346 | -25.45231 | 33845 ft | 461 kts | 270° |
| 2026-05-03 22:21 | 53.60328 | -25.49921 | 33592 ft | 462 kts | 270° |
| 2026-05-03 22:21 | 53.60311 | -25.54325 | 33319 ft | 463 kts | 270° |
| 2026-05-03 22:21 | 53.60297 | -25.57496 | 33129 ft | 464 kts | 270° |
| 2026-05-03 22:21 | 53.60275 | -25.62147 | 32861 ft | 464 kts | 270° |
| 2026-05-03 22:22 | 53.60252 | -25.66493 | 32597 ft | 465 kts | 270° |
| 2026-05-03 22:22 | 53.60229 | -25.70337 | 32374 ft | 466 kts | 270° |
| 2026-05-03 22:22 | 53.60204 | -25.74314 | 32159 ft | 465 kts | 270° |
| 2026-05-03 22:23 | 53.60160 | -25.80827 | 32214 ft | 464 kts | 270° |
| 2026-05-03 22:23 | 53.60125 | -25.85003 | 32391 ft | 464 kts | 268° |
| 2026-05-03 22:23 | 53.60052 | -25.87254 | 32550 ft | 463 kts | 267° |
| 2026-05-03 22:24 | 53.59956 | -25.89470 | 32686 ft | 463 kts | 266° |
| 2026-05-03 22:24 | 53.59868 | -25.91718 | 32811 ft | 463 kts | 267° |
| 2026-05-03 22:24 | 53.59808 | -25.94008 | 32930 ft | 464 kts | 269° |
| 2026-05-03 22:24 | 53.59767 | -25.97746 | 33186 ft | 463 kts | 270° |
| 2026-05-03 22:25 | 53.59769 | -26.01597 | 33418 ft | 462 kts | 271° |
| 2026-05-03 22:25 | 53.59786 | -26.05154 | 33598 ft | 463 kts | 271° |
| 2026-05-03 22:25 | 53.59805 | -26.08856 | 33560 ft | 467 kts | 270° |
| 2026-05-03 22:26 | 53.59811 | -26.16249 | 33607 ft | 465 kts | 270° |
| 2026-05-03 22:26 | 53.59788 | -26.21816 | 33523 ft | 464 kts | 270° |
| 2026-05-03 22:27 | 53.59676 | -26.26373 | 33310 ft | 465 kts | 264° |
| 2026-05-03 22:27 | 53.59525 | -26.28896 | 33133 ft | 461 kts | 271° |
| 2026-05-03 22:27 | 53.59604 | -26.31846 | 32890 ft | 457 kts | 274° |
| 2026-05-03 22:27 | 53.59676 | -26.34192 | 32650 ft | 459 kts | 272° |
| 2026-05-03 22:28 | 53.59705 | -26.36736 | 32398 ft | 461 kts | 271° |
| 2026-05-03 22:28 | 53.59713 | -26.39247 | 32180 ft | 462 kts | 271° |
| 2026-05-03 22:28 | 53.59721 | -26.41619 | 32162 ft | 456 kts | 270° |
| 2026-05-03 22:29 | 53.59620 | -26.49472 | 32232 ft | 458 kts | 269° |
| 2026-05-03 22:29 | 53.59531 | -26.54087 | 32156 ft | 465 kts | 269° |
| 2026-05-03 22:30 | 53.59381 | -26.63080 | 32158 ft | 466 kts | 269° |
| 2026-05-03 22:30 | 53.59185 | -26.73950 | 32146 ft | 463 kts | 269° |
| 2026-05-03 22:31 | 53.59011 | -26.84750 | 32143 ft | 461 kts | 269° |
| 2026-05-03 22:31 | 53.58840 | -26.95448 | 32149 ft | 460 kts | 269° |
| 2026-05-03 22:32 | 53.58662 | -27.06100 | 32145 ft | 460 kts | 269° |
| 2026-05-03 22:32 | 53.58479 | -27.16614 | 32157 ft | 460 kts | 269° |
| 2026-05-03 22:33 | 53.58293 | -27.26574 | 32163 ft | 461 kts | 269° |
| 2026-05-03 22:33 | 53.58175 | -27.31293 | 32186 ft | 457 kts | 264° |
| 2026-05-03 22:34 | 53.57613 | -27.38613 | 32157 ft | 458 kts | 266° |
| 2026-05-03 22:34 | 53.57449 | -27.40950 | 31931 ft | 461 kts | 261° |
| 2026-05-03 22:34 | 53.57153 | -27.43257 | 31505 ft | 468 kts | 258° |
| 2026-05-03 22:34 | 53.56705 | -27.46340 | 31109 ft | 481 kts | 258° |
| 2026-05-03 22:35 | 53.56083 | -27.51730 | 31630 ft | 473 kts | 264° |
| 2026-05-03 22:35 | 53.55862 | -27.57178 | 32146 ft | 465 kts | 271° |
| 2026-05-03 22:35 | 53.55950 | -27.62610 | 32131 ft | 464 kts | 273° |
| 2026-05-03 22:36 | 53.56090 | -27.73250 | 32149 ft | 457 kts | 272° |
| 2026-05-03 22:36 | 53.56162 | -27.83675 | 32163 ft | 458 kts | 271° |
| 2026-05-03 22:37 | 53.56196 | -27.90870 | 32167 ft | 458 kts | 271° |
| 2026-05-03 22:37 | 53.56213 | -27.96524 | 32158 ft | 459 kts | 271° |
| 2026-05-03 22:38 | 53.56223 | -28.01960 | 32084 ft | 460 kts | 271° |
| 2026-05-03 22:38 | 53.56240 | -28.09557 | 32161 ft | 459 kts | 271° |
| 2026-05-03 22:39 | 53.56269 | -28.19319 | 32157 ft | 459 kts | 271° |
| 2026-05-03 22:39 | 53.56283 | -28.25494 | 32163 ft | 459 kts | 271° |
| 2026-05-03 22:40 | 53.56289 | -28.31522 | 32175 ft | 459 kts | 271° |
| 2026-05-03 22:40 | 53.56293 | -28.37460 | 32183 ft | 458 kts | 271° |
| 2026-05-03 22:41 | 53.56296 | -28.46982 | 32161 ft | 459 kts | 271° |
| 2026-05-03 22:41 | 53.56295 | -28.55615 | 32169 ft | 459 kts | 271° |
| 2026-05-03 22:42 | 53.56285 | -28.64601 | 32167 ft | 459 kts | 271° |
| 2026-05-03 22:42 | 53.56266 | -28.74059 | 32166 ft | 460 kts | 270° |
| 2026-05-03 22:43 | 53.56238 | -28.83046 | 32162 ft | 460 kts | 270° |
| 2026-05-03 22:43 | 53.56203 | -28.92802 | 32169 ft | 460 kts | 270° |
| 2026-05-03 22:44 | 53.56163 | -29.01837 | 32165 ft | 460 kts | 270° |
| 2026-05-03 22:44 | 53.56115 | -29.11249 | 32165 ft | 460 kts | 270° |
| 2026-05-03 22:45 | 53.56054 | -29.21146 | 32166 ft | 461 kts | 270° |
| 2026-05-03 22:45 | 53.55987 | -29.30860 | 32168 ft | 461 kts | 270° |
| 2026-05-03 22:46 | 53.55919 | -29.39357 | 32165 ft | 462 kts | 269° |
| 2026-05-03 22:46 | 53.55847 | -29.47963 | 32164 ft | 462 kts | 269° |
| 2026-05-03 22:47 | 53.55767 | -29.56940 | 32167 ft | 461 kts | 269° |
| 2026-05-03 22:47 | 53.55681 | -29.65729 | 32165 ft | 461 kts | 269° |
| 2026-05-03 22:48 | 53.55584 | -29.74935 | 32166 ft | 462 kts | 269° |
| 2026-05-03 22:48 | 53.55486 | -29.83689 | 32165 ft | 461 kts | 269° |
| 2026-05-03 22:49 | 53.55381 | -29.92375 | 32170 ft | 461 kts | 269° |
| 2026-05-03 22:49 | 53.55255 | -30.02085 | 32165 ft | 461 kts | 269° |
| 2026-05-03 22:50 | 53.55116 | -30.12416 | 32165 ft | 461 kts | 269° |
| 2026-05-03 22:50 | 53.54966 | -30.23025 | 32165 ft | 461 kts | 268° |
| 2026-05-03 22:51 | 53.54802 | -30.33528 | 32169 ft | 461 kts | 268° |
| 2026-05-03 22:51 | 53.54636 | -30.43652 | 32162 ft | 461 kts | 268° |
| 2026-05-03 22:52 | 53.54463 | -30.53674 | 32154 ft | 461 kts | 268° |
| 2026-05-03 22:52 | 53.54285 | -30.63702 | 32159 ft | 461 kts | 268° |
| 2026-05-03 22:53 | 53.54095 | -30.73800 | 32161 ft | 461 kts | 268° |
| 2026-05-03 22:53 | 53.53927 | -30.82297 | 32162 ft | 461 kts | 268° |
| 2026-05-03 22:54 | 53.53681 | -30.94400 | 32168 ft | 461 kts | 268° |
| 2026-05-03 22:54 | 53.53455 | -31.04993 | 32167 ft | 461 kts | 267° |
| 2026-05-03 22:55 | 53.53263 | -31.13658 | 32165 ft | 461 kts | 267° |
| 2026-05-03 22:55 | 53.53020 | -31.24228 | 32138 ft | 462 kts | 267° |
| 2026-05-03 22:56 | 53.52774 | -31.34554 | 32095 ft | 462 kts | 267° |
| 2026-05-03 22:56 | 53.52529 | -31.44419 | 32089 ft | 462 kts | 266° |
| 2026-05-03 22:57 | 53.52257 | -31.55039 | 32092 ft | 461 kts | 266° |
| 2026-05-03 22:57 | 53.51975 | -31.65769 | 32093 ft | 462 kts | 266° |
| 2026-05-03 22:58 | 53.51689 | -31.76214 | 32094 ft | 462 kts | 266° |
| 2026-05-03 22:58 | 53.51391 | -31.86776 | 32093 ft | 462 kts | 266° |
| 2026-05-03 22:59 | 53.51082 | -31.97378 | 32094 ft | 463 kts | 266° |
| 2026-05-03 22:59 | 53.50758 | -32.08181 | 32094 ft | 463 kts | 266° |
| 2026-05-03 23:00 | 53.50423 | -32.18965 | 32091 ft | 463 kts | 266° |
| 2026-05-03 23:00 | 53.50082 | -32.29695 | 32091 ft | 462 kts | 266° |
| 2026-05-03 23:01 | 53.49734 | -32.40348 | 32092 ft | 462 kts | 266° |
| 2026-05-03 23:01 | 53.49383 | -32.50793 | 32091 ft | 461 kts | 266° |
| 2026-05-03 23:02 | 53.49061 | -32.60116 | 32094 ft | 461 kts | 265° |
| 2026-05-03 23:02 | 53.48700 | -32.70376 | 32092 ft | 461 kts | 265° |
| 2026-05-03 23:03 | 53.48361 | -32.79789 | 32093 ft | 461 kts | 265° |
| 2026-05-03 23:03 | 53.48121 | -32.86290 | 32086 ft | 460 kts | 265° |
| 2026-05-03 23:04 | 53.47919 | -32.91626 | 32096 ft | 460 kts | 265° |
| 2026-05-03 23:04 | 53.47682 | -32.97761 | 32073 ft | 460 kts | 265° |
| 2026-05-03 23:05 | 53.47456 | -33.03558 | 32065 ft | 459 kts | 265° |
| 2026-05-03 23:05 | 53.47197 | -33.10212 | 32073 ft | 459 kts | 265° |
| 2026-05-03 23:06 | 53.46975 | -33.15824 | 32082 ft | 459 kts | 265° |
| 2026-05-03 23:06 | 53.46724 | -33.22086 | 32082 ft | 459 kts | 265° |
| 2026-05-03 23:07 | 53.46476 | -33.28282 | 32037 ft | 460 kts | 265° |
| 2026-05-03 23:07 | 53.46239 | -33.34079 | 32094 ft | 459 kts | 265° |
| 2026-05-03 23:08 | 53.45991 | -33.40130 | 32049 ft | 460 kts | 265° |
| 2026-05-03 23:08 | 53.45764 | -33.45541 | 32081 ft | 459 kts | 265° |
| 2026-05-03 23:09 | 53.45538 | -33.50830 | 32143 ft | 458 kts | 265° |
| 2026-05-03 23:09 | 53.45282 | -33.56822 | 32209 ft | 458 kts | 265° |
| 2026-05-03 23:10 | 53.45012 | -33.63113 | 32218 ft | 459 kts | 265° |
| 2026-05-03 23:10 | 53.44899 | -33.65694 | 32100 ft | 462 kts | 264° |
| 2026-05-03 23:10 | 53.44781 | -33.68318 | 32026 ft | 463 kts | 264° |
| 2026-05-03 23:11 | 53.44538 | -33.73750 | 32309 ft | 456 kts | 264° |
| 2026-05-03 23:11 | 53.44226 | -33.80779 | 32179 ft | 461 kts | 264° |
| 2026-05-03 23:12 | 53.43952 | -33.86868 | 32177 ft | 461 kts | 264° |
| 2026-05-03 23:12 | 53.43676 | -33.92982 | 32175 ft | 462 kts | 264° |
| 2026-05-03 23:13 | 53.43442 | -33.98055 | 32308 ft | 459 kts | 263° |
| 2026-05-03 23:13 | 53.43263 | -34.01087 | 32431 ft | 455 kts | 263° |
| 2026-05-03 23:13 | 53.42975 | -34.06208 | 32289 ft | 460 kts | 264° |
| 2026-05-03 23:14 | 53.42500 | -34.16946 | 32177 ft | 463 kts | 265° |
| 2026-05-03 23:14 | 53.42025 | -34.27720 | 32130 ft | 462 kts | 264° |
| 2026-05-03 23:15 | 53.41514 | -34.38455 | 32101 ft | 460 kts | 264° |
| 2026-05-03 23:15 | 53.40987 | -34.48969 | 32090 ft | 457 kts | 264° |
| 2026-05-03 23:16 | 53.40480 | -34.58844 | 32093 ft | 455 kts | 264° |
| 2026-05-03 23:16 | 53.40115 | -34.65834 | 32092 ft | 453 kts | 264° |
| 2026-05-03 23:17 | 53.39805 | -34.70260 | 32091 ft | 452 kts | 260° |
| 2026-05-03 23:17 | 53.39228 | -34.74681 | 31998 ft | 453 kts | 252° |
| 2026-05-03 23:17 | 53.38787 | -34.76819 | 31876 ft | 455 kts | 248° |
| 2026-05-03 23:18 | 53.38202 | -34.78946 | 31652 ft | 459 kts | 242° |
| 2026-05-03 23:18 | 53.37485 | -34.80932 | 31385 ft | 465 kts | 235° |
| 2026-05-03 23:18 | 53.36447 | -34.83090 | 30978 ft | 473 kts | 227° |
| 2026-05-03 23:18 | 53.34517 | -34.86816 | 30994 ft | 456 kts | 238° |
| 2026-05-03 23:19 | 53.33185 | -34.91062 | 31259 ft | 447 kts | 251° |
| 2026-05-03 23:19 | 53.32668 | -34.95106 | 31409 ft | 447 kts | 267° |
| 2026-05-03 23:19 | 53.32911 | -35.00081 | 31686 ft | 448 kts | 279° |
| 2026-05-03 23:19 | 53.33619 | -35.05120 | 31873 ft | 452 kts | 284° |
| 2026-05-03 23:20 | 53.34490 | -35.10128 | 31959 ft | 456 kts | 285° |
| 2026-05-03 23:20 | 53.35656 | -35.16965 | 32163 ft | 457 kts | 281° |
| 2026-05-03 23:20 | 53.35908 | -35.19226 | 32399 ft | 452 kts | 276° |
| 2026-05-03 23:21 | 53.36036 | -35.21460 | 32675 ft | 446 kts | 270° |
| 2026-05-03 23:21 | 53.36019 | -35.23672 | 32925 ft | 442 kts | 264° |
| 2026-05-03 23:21 | 53.35857 | -35.25894 | 33119 ft | 434 kts | 266° |
| 2026-05-03 23:21 | 53.35791 | -35.28085 | 33243 ft | 428 kts | 266° |
| 2026-05-03 23:22 | 53.35773 | -35.32338 | 33007 ft | 439 kts | 273° |
| 2026-05-03 23:22 | 53.35859 | -35.34527 | 32515 ft | 452 kts | 275° |
| 2026-05-03 23:22 | 53.36003 | -35.36753 | 31874 ft | 468 kts | 277° |
| 2026-05-03 23:23 | 53.36211 | -35.39053 | 31167 ft | 485 kts | 279° |
| 2026-05-03 23:23 | 53.36499 | -35.41516 | 30503 ft | 501 kts | 280° |
| 2026-05-03 23:23 | 53.36786 | -35.44152 | 30386 ft | 497 kts | 275° |
| 2026-05-03 23:23 | 53.36911 | -35.46630 | 30686 ft | 487 kts | 272° |
| 2026-05-03 23:24 | 53.36978 | -35.49023 | 31282 ft | 470 kts | 273° |
| 2026-05-03 23:24 | 53.37117 | -35.51354 | 32098 ft | 450 kts | 278° |
| 2026-05-03 23:24 | 53.37390 | -35.53982 | 33085 ft | 427 kts | 280° |
| 2026-05-03 23:24 | 53.37623 | -35.57307 | 33055 ft | 431 kts | 269° |
| 2026-05-03 23:25 | 53.37377 | -35.60941 | 32752 ft | 441 kts | 255° |
| 2026-05-03 23:25 | 53.36586 | -35.65178 | 32618 ft | 448 kts | 251° |
| 2026-05-03 23:25 | 53.35730 | -35.69171 | 32504 ft | 451 kts | 251° |
| 2026-05-03 23:25 | 53.34872 | -35.73544 | 32336 ft | 450 kts | 254° |
| 2026-05-03 23:26 | 53.34170 | -35.78310 | 32271 ft | 447 kts | 262° |
| 2026-05-03 23:26 | 53.33884 | -35.82875 | 32159 ft | 441 kts | 263° |
| 2026-05-03 23:27 | 53.33727 | -35.85019 | 31963 ft | 445 kts | 262° |
| 2026-05-03 23:27 | 53.33550 | -35.87204 | 31662 ft | 450 kts | 262° |
| 2026-05-03 23:27 | 53.33366 | -35.89380 | 31295 ft | 457 kts | 262° |
| 2026-05-03 23:27 | 53.33173 | -35.91687 | 31032 ft | 460 kts | 262° |
| 2026-05-03 23:28 | 53.32976 | -35.93898 | 31261 ft | 451 kts | 259° |
| 2026-05-03 23:28 | 53.32705 | -35.96046 | 31723 ft | 437 kts | 254° |
| 2026-05-03 23:28 | 53.32703 | -35.96053 | 31723 ft | 437 kts | 254° |
| 2026-05-03 23:30 | 53.31991 | -36.00221 | 32408 ft | 422 kts | 256° |
| 2026-05-03 23:31 | 53.30988 | -36.10079 | 32509 ft | 439 kts | 264° |
| 2026-05-03 23:31 | 53.30603 | -36.20400 | 32797 ft | 448 kts | 266° |
| 2026-05-03 23:32 | 53.30447 | -36.25596 | 33205 ft | 445 kts | 266° |
| 2026-05-03 23:32 | 53.30240 | -36.30743 | 33608 ft | 444 kts | 265° |
| 2026-05-03 23:32 | 53.29977 | -36.35884 | 33913 ft | 443 kts | 264° |
| 2026-05-03 23:32 | 53.29673 | -36.41017 | 34016 ft | 446 kts | 263° |
| 2026-05-03 23:33 | 53.28992 | -36.51322 | 34097 ft | 445 kts | 263° |
| 2026-05-03 23:33 | 53.28283 | -36.61500 | 34081 ft | 443 kts | 263° |
| 2026-05-03 23:34 | 53.27568 | -36.71699 | 34093 ft | 441 kts | 263° |
| 2026-05-03 23:34 | 53.26853 | -36.81872 | 34098 ft | 441 kts | 263° |
| 2026-05-03 23:35 | 53.26128 | -36.92042 | 34092 ft | 441 kts | 263° |
| 2026-05-03 23:35 | 53.25398 | -37.02210 | 34087 ft | 441 kts | 263° |
| 2026-05-03 23:36 | 53.24658 | -37.12376 | 34085 ft | 442 kts | 263° |
| 2026-05-03 23:36 | 53.23907 | -37.22557 | 34081 ft | 442 kts | 263° |
| 2026-05-03 23:37 | 53.23150 | -37.32751 | 34084 ft | 443 kts | 263° |
| 2026-05-03 23:37 | 53.22381 | -37.42944 | 34086 ft | 443 kts | 262° |
| 2026-05-03 23:38 | 53.21599 | -37.53137 | 34085 ft | 443 kts | 262° |
| 2026-05-03 23:38 | 53.20812 | -37.63336 | 34080 ft | 443 kts | 262° |
| 2026-05-03 23:39 | 53.20017 | -37.73506 | 34083 ft | 442 kts | 262° |
| 2026-05-03 23:39 | 53.19216 | -37.83674 | 34085 ft | 442 kts | 262° |
| 2026-05-03 23:40 | 53.18408 | -37.93818 | 34085 ft | 441 kts | 262° |
| 2026-05-03 23:40 | 53.17587 | -38.03960 | 34087 ft | 441 kts | 262° |
| 2026-05-03 23:41 | 53.16902 | -38.12367 | 34081 ft | 441 kts | 262° |
| 2026-05-03 23:41 | 53.16069 | -38.22483 | 34078 ft | 440 kts | 262° |
| 2026-05-03 23:42 | 53.15228 | -38.32595 | 34083 ft | 440 kts | 262° |
| 2026-05-03 23:42 | 53.14378 | -38.42704 | 34085 ft | 441 kts | 262° |
| 2026-05-03 23:43 | 53.13519 | -38.52810 | 34085 ft | 441 kts | 261° |
| 2026-05-03 23:43 | 53.12652 | -38.62913 | 34083 ft | 441 kts | 261° |
| 2026-05-03 23:44 | 53.11774 | -38.73030 | 34081 ft | 442 kts | 261° |
| 2026-05-03 23:44 | 53.10886 | -38.83145 | 34079 ft | 442 kts | 261° |
| 2026-05-03 23:45 | 53.09989 | -38.93273 | 34074 ft | 442 kts | 261° |
| 2026-05-03 23:45 | 53.09085 | -39.03402 | 34073 ft | 443 kts | 261° |
| 2026-05-03 23:46 | 53.08171 | -39.13524 | 34076 ft | 443 kts | 261° |
| 2026-05-03 23:46 | 53.07248 | -39.23651 | 34072 ft | 443 kts | 261° |
| 2026-05-03 23:47 | 53.06316 | -39.33777 | 34072 ft | 443 kts | 261° |
| 2026-05-03 23:47 | 53.05376 | -39.43885 | 34073 ft | 443 kts | 261° |
| 2026-05-03 23:48 | 53.04434 | -39.53927 | 34075 ft | 442 kts | 261° |
| 2026-05-03 23:48 | 53.03471 | -39.64090 | 34073 ft | 442 kts | 261° |
| 2026-05-03 23:49 | 53.02513 | -39.74117 | 34075 ft | 442 kts | 260° |
| 2026-05-03 23:49 | 53.01539 | -39.84203 | 34075 ft | 442 kts | 260° |
| 2026-05-03 23:50 | 53.00562 | -39.94281 | 34075 ft | 442 kts | 260° |
| 2026-05-03 23:50 | 52.99707 | -40.04384 | 34072 ft | 442 kts | 263° |
| 2026-05-03 23:51 | 52.99128 | -40.14551 | 34072 ft | 443 kts | 264° |
| 2026-05-03 23:51 | 52.98565 | -40.24742 | 34067 ft | 444 kts | 264° |
| 2026-05-03 23:52 | 52.97977 | -40.34944 | 34064 ft | 444 kts | 264° |
| 2026-05-03 23:52 | 52.97371 | -40.45139 | 34064 ft | 444 kts | 263° |
| 2026-05-03 23:53 | 52.96755 | -40.55338 | 34064 ft | 444 kts | 263° |
| 2026-05-03 23:53 | 52.96128 | -40.65544 | 34066 ft | 445 kts | 263° |
| 2026-05-03 23:54 | 52.95493 | -40.75751 | 34064 ft | 445 kts | 263° |
| 2026-05-03 23:54 | 52.94849 | -40.85957 | 34065 ft | 445 kts | 263° |
| 2026-05-03 23:55 | 52.94194 | -40.96171 | 34064 ft | 445 kts | 263° |
| 2026-05-03 23:55 | 52.93532 | -41.06373 | 34064 ft | 445 kts | 263° |
| 2026-05-03 23:56 | 52.92862 | -41.16573 | 34063 ft | 445 kts | 263° |
| 2026-05-03 23:56 | 52.92183 | -41.26762 | 34064 ft | 445 kts | 263° |
| 2026-05-03 23:57 | 52.91497 | -41.36949 | 34060 ft | 445 kts | 263° |
| 2026-05-03 23:57 | 52.90801 | -41.47146 | 34056 ft | 445 kts | 263° |
| 2026-05-03 23:58 | 52.90095 | -41.57335 | 34054 ft | 446 kts | 263° |
| 2026-05-03 23:58 | 52.89381 | -41.67537 | 34056 ft | 446 kts | 262° |
| 2026-05-03 23:59 | 52.88655 | -41.77727 | 34055 ft | 446 kts | 262° |
| 2026-05-03 23:59 | 52.87922 | -41.87913 | 34055 ft | 446 kts | 262° |
| 2026-05-04 00:00 | 52.87184 | -41.98103 | 34054 ft | 446 kts | 262° |
| 2026-05-04 00:00 | 52.86432 | -42.08286 | 34056 ft | 446 kts | 262° |
| 2026-05-04 00:01 | 52.85675 | -42.18461 | 34056 ft | 446 kts | 262° |
| 2026-05-04 00:01 | 52.84907 | -42.28648 | 34057 ft | 447 kts | 262° |
| 2026-05-04 00:02 | 52.84129 | -42.38835 | 34047 ft | 447 kts | 262° |
| 2026-05-04 00:02 | 52.83345 | -42.48962 | 34050 ft | 447 kts | 262° |
| 2026-05-04 00:03 | 52.82547 | -42.59164 | 34047 ft | 448 kts | 262° |
| 2026-05-04 00:03 | 52.81743 | -42.69373 | 34045 ft | 448 kts | 261° |
| 2026-05-04 00:04 | 52.80929 | -42.79579 | 34049 ft | 447 kts | 261° |
| 2026-05-04 00:04 | 52.80107 | -42.89773 | 34046 ft | 447 kts | 261° |
| 2026-05-04 00:05 | 52.79275 | -42.99956 | 34047 ft | 448 kts | 261° |
| 2026-05-04 00:05 | 52.78433 | -43.10151 | 34047 ft | 448 kts | 261° |
| 2026-05-04 00:06 | 52.77584 | -43.20342 | 34034 ft | 448 kts | 261° |
| 2026-05-04 00:06 | 52.76725 | -43.30539 | 34043 ft | 448 kts | 261° |
| 2026-05-04 00:07 | 52.75857 | -43.40733 | 34037 ft | 448 kts | 260° |
| 2026-05-04 00:07 | 52.74983 | -43.50906 | 34030 ft | 448 kts | 260° |
| 2026-05-04 00:08 | 52.74098 | -43.61084 | 34035 ft | 448 kts | 260° |
| 2026-05-04 00:08 | 52.73202 | -43.71260 | 34035 ft | 448 kts | 260° |
| 2026-05-04 00:09 | 52.72305 | -43.81354 | 34026 ft | 448 kts | 259° |
| 2026-05-04 00:09 | 52.71396 | -43.91530 | 34046 ft | 448 kts | 259° |
| 2026-05-04 00:10 | 52.70475 | -44.01695 | 34018 ft | 449 kts | 261° |
| 2026-05-04 00:10 | 52.69543 | -44.11889 | 34022 ft | 450 kts | 261° |
| 2026-05-04 00:11 | 52.68601 | -44.22097 | 34021 ft | 451 kts | 261° |
| 2026-05-04 00:11 | 52.67650 | -44.32314 | 34022 ft | 451 kts | 261° |
| 2026-05-04 00:12 | 52.66688 | -44.42541 | 34007 ft | 452 kts | 261° |
| 2026-05-04 00:12 | 52.65714 | -44.52774 | 34007 ft | 452 kts | 261° |
| 2026-05-04 00:13 | 52.64734 | -44.62993 | 34009 ft | 451 kts | 261° |
| 2026-05-04 00:13 | 52.63748 | -44.73166 | 34007 ft | 451 kts | 261° |
| 2026-05-04 00:14 | 52.62755 | -44.83329 | 34011 ft | 450 kts | 261° |
| 2026-05-04 00:14 | 52.61755 | -44.93496 | 34006 ft | 450 kts | 261° |
| 2026-05-04 00:15 | 52.60745 | -45.03642 | 34005 ft | 450 kts | 261° |
| 2026-05-04 00:15 | 52.59726 | -45.13797 | 33999 ft | 449 kts | 261° |
| 2026-05-04 00:16 | 52.58699 | -45.23917 | 34000 ft | 449 kts | 261° |
| 2026-05-04 00:16 | 52.57665 | -45.34033 | 34002 ft | 448 kts | 261° |
| 2026-05-04 00:17 | 52.56624 | -45.44131 | 34001 ft | 448 kts | 261° |
| 2026-05-04 00:17 | 52.55574 | -45.54226 | 33955 ft | 448 kts | 261° |
| 2026-05-04 00:18 | 52.54516 | -45.64309 | 33950 ft | 447 kts | 261° |
| 2026-05-04 00:18 | 52.53453 | -45.74357 | 33938 ft | 447 kts | 261° |
| 2026-05-04 00:19 | 52.52380 | -45.84405 | 33944 ft | 445 kts | 261° |
| 2026-05-04 00:19 | 52.51304 | -45.94408 | 33941 ft | 445 kts | 261° |
| 2026-05-04 00:20 | 52.50219 | -46.04402 | 33953 ft | 444 kts | 261° |
| 2026-05-04 00:20 | 52.49128 | -46.14368 | 33936 ft | 444 kts | 261° |
| 2026-05-04 00:21 | 52.48039 | -46.24270 | 33934 ft | 444 kts | 261° |
| 2026-05-04 00:21 | 52.46926 | -46.34283 | 33937 ft | 443 kts | 261° |
| 2026-05-04 00:22 | 52.45817 | -46.44169 | 33934 ft | 443 kts | 261° |
| 2026-05-04 00:22 | 52.44692 | -46.54107 | 33952 ft | 444 kts | 261° |
| 2026-05-04 00:23 | 52.43563 | -46.64040 | 33935 ft | 443 kts | 261° |
| 2026-05-04 00:23 | 52.42423 | -46.73974 | 33931 ft | 443 kts | 261° |
| 2026-05-04 00:24 | 52.41275 | -46.83894 | 33938 ft | 443 kts | 261° |
| 2026-05-04 00:24 | 52.40120 | -46.93802 | 33933 ft | 443 kts | 261° |
| 2026-05-04 00:25 | 52.38958 | -47.03693 | 33927 ft | 442 kts | 261° |
| 2026-05-04 00:25 | 52.37790 | -47.13561 | 33927 ft | 441 kts | 261° |
| 2026-05-04 00:26 | 52.36617 | -47.23391 | 33927 ft | 440 kts | 261° |
| 2026-05-04 00:26 | 52.35439 | -47.33197 | 33925 ft | 439 kts | 261° |
| 2026-05-04 00:27 | 52.34255 | -47.42979 | 33927 ft | 437 kts | 262° |
| 2026-05-04 00:27 | 52.33070 | -47.52698 | 33921 ft | 436 kts | 262° |
| 2026-05-04 00:28 | 52.31880 | -47.62393 | 33926 ft | 434 kts | 262° |
| 2026-05-04 00:28 | 52.30686 | -47.72050 | 33922 ft | 433 kts | 262° |
| 2026-05-04 00:29 | 52.29691 | -47.80052 | 33915 ft | 432 kts | 262° |
| 2026-05-04 00:29 | 52.28487 | -47.89654 | 33917 ft | 431 kts | 262° |
| 2026-05-04 00:30 | 52.27279 | -47.99230 | 33917 ft | 430 kts | 262° |
| 2026-05-04 00:30 | 52.26065 | -48.08777 | 33916 ft | 430 kts | 262° |
| 2026-05-04 00:31 | 52.24845 | -48.18325 | 33916 ft | 429 kts | 262° |
| 2026-05-04 00:31 | 52.23618 | -48.27854 | 33917 ft | 429 kts | 262° |
| 2026-05-04 00:32 | 52.22382 | -48.37385 | 33917 ft | 430 kts | 262° |
| 2026-05-04 00:32 | 52.21144 | -48.46869 | 33917 ft | 430 kts | 262° |
| 2026-05-04 00:33 | 52.19259 | -48.61186 | 33908 ft | 431 kts | 261° |
| 2026-05-04 00:34 | 52.17990 | -48.70739 | 33911 ft | 432 kts | 261° |
| 2026-05-04 00:34 | 52.16712 | -48.80298 | 33907 ft | 431 kts | 261° |
| 2026-05-04 00:35 | 52.15430 | -48.89832 | 33906 ft | 431 kts | 261° |
| 2026-05-04 00:35 | 52.14140 | -48.99348 | 33909 ft | 430 kts | 261° |
| 2026-05-04 00:36 | 52.12847 | -49.08846 | 33906 ft | 429 kts | 261° |
| 2026-05-04 00:36 | 52.11552 | -49.18285 | 33905 ft | 427 kts | 261° |
| 2026-05-04 00:37 | 52.10253 | -49.27696 | 33909 ft | 425 kts | 261° |
| 2026-05-04 00:37 | 52.08954 | -49.37051 | 33907 ft | 424 kts | 261° |
| 2026-05-04 00:38 | 52.07653 | -49.46363 | 33901 ft | 422 kts | 261° |
| 2026-05-04 00:38 | 52.06347 | -49.55640 | 33895 ft | 420 kts | 261° |
| 2026-05-04 00:39 | 52.05050 | -49.64822 | 33898 ft | 418 kts | 261° |
| 2026-05-04 00:39 | 52.03741 | -49.74006 | 33894 ft | 417 kts | 261° |
| 2026-05-04 00:40 | 52.02429 | -49.83167 | 33898 ft | 416 kts | 261° |
| 2026-05-04 00:40 | 52.01113 | -49.92311 | 33901 ft | 416 kts | 261° |
| 2026-05-04 00:41 | 51.99669 | -50.01402 | 33907 ft | 418 kts | 257° |
| 2026-05-04 00:41 | 51.97552 | -50.10240 | 33904 ft | 421 kts | 254° |
| 2026-05-04 00:42 | 51.95406 | -50.19066 | 33899 ft | 421 kts | 254° |
| 2026-05-04 00:42 | 51.93262 | -50.27918 | 33896 ft | 421 kts | 254° |
| 2026-05-04 00:43 | 51.91130 | -50.36696 | 33903 ft | 422 kts | 254° |
| 2026-05-04 00:43 | 51.88980 | -50.45525 | 33897 ft | 421 kts | 253° |
| 2026-05-04 00:44 | 51.86821 | -50.54338 | 33891 ft | 421 kts | 253° |
| 2026-05-04 00:44 | 51.84644 | -50.63177 | 33885 ft | 419 kts | 253° |
| 2026-05-04 00:45 | 51.82501 | -50.71854 | 33884 ft | 417 kts | 253° |
| 2026-05-04 00:45 | 51.80352 | -50.80537 | 33893 ft | 415 kts | 252° |
| 2026-05-04 00:46 | 51.78202 | -50.89161 | 33893 ft | 413 kts | 252° |
| 2026-05-04 00:46 | 51.76058 | -50.97741 | 33888 ft | 411 kts | 252° |
| 2026-05-04 00:47 | 51.73922 | -51.06265 | 33888 ft | 409 kts | 252° |
| 2026-05-04 00:47 | 51.71785 | -51.14757 | 33885 ft | 408 kts | 251° |
| 2026-05-04 00:48 | 51.69645 | -51.23224 | 33890 ft | 407 kts | 251° |
| 2026-05-04 00:48 | 51.67504 | -51.31668 | 33868 ft | 407 kts | 251° |
| 2026-05-04 00:49 | 51.65359 | -51.40085 | 33862 ft | 406 kts | 251° |
| 2026-05-04 00:49 | 51.63212 | -51.48482 | 33862 ft | 405 kts | 251° |
| 2026-05-04 00:50 | 51.61068 | -51.56864 | 33861 ft | 405 kts | 251° |
| 2026-05-04 00:50 | 51.58917 | -51.65222 | 33858 ft | 404 kts | 251° |
| 2026-05-04 00:51 | 51.56754 | -51.73572 | 33852 ft | 404 kts | 250° |
| 2026-05-04 00:51 | 51.54590 | -51.81902 | 33851 ft | 404 kts | 250° |
| 2026-05-04 00:52 | 51.52430 | -51.90218 | 33851 ft | 403 kts | 250° |
| 2026-05-04 00:52 | 51.50258 | -51.98528 | 33849 ft | 403 kts | 250° |
| 2026-05-04 00:53 | 51.48082 | -52.06830 | 33852 ft | 404 kts | 250° |
| 2026-05-04 00:53 | 51.45898 | -52.15136 | 33852 ft | 404 kts | 250° |
| 2026-05-04 00:54 | 51.43703 | -52.23440 | 33852 ft | 405 kts | 249° |
| 2026-05-04 00:54 | 51.41500 | -52.31747 | 33851 ft | 405 kts | 249° |
| 2026-05-04 00:55 | 51.39307 | -52.39985 | 33856 ft | 405 kts | 249° |
| 2026-05-04 00:55 | 51.37093 | -52.48290 | 33850 ft | 406 kts | 249° |
| 2026-05-04 00:56 | 51.34864 | -52.56602 | 33854 ft | 407 kts | 249° |
| 2026-05-04 00:56 | 51.32625 | -52.64928 | 33853 ft | 408 kts | 248° |
| 2026-05-04 00:57 | 51.30373 | -52.73260 | 33852 ft | 409 kts | 248° |
| 2026-05-04 00:57 | 51.28089 | -52.81571 | 33838 ft | 407 kts | 248° |
| 2026-05-04 00:58 | 51.25851 | -52.89884 | 33846 ft | 407 kts | 248° |
| 2026-05-04 00:58 | 51.23558 | -52.98221 | 33854 ft | 412 kts | 246° |
| 2026-05-04 00:59 | 51.21243 | -53.06594 | 33852 ft | 411 kts | 248° |
| 2026-05-04 00:59 | 51.18990 | -53.15011 | 33842 ft | 413 kts | 247° |
| 2026-05-04 01:00 | 51.16683 | -53.23376 | 33841 ft | 412 kts | 247° |
| 2026-05-04 01:00 | 51.14410 | -53.31751 | 33817 ft | 412 kts | 248° |
| 2026-05-04 01:01 | 51.12162 | -53.40138 | 33814 ft | 411 kts | 247° |
| 2026-05-04 01:01 | 51.09913 | -53.48500 | 33815 ft | 411 kts | 247° |
| 2026-05-04 01:02 | 51.07654 | -53.56853 | 33813 ft | 411 kts | 247° |
| 2026-05-04 01:02 | 51.05388 | -53.65193 | 33815 ft | 411 kts | 247° |
| 2026-05-04 01:03 | 51.03113 | -53.73527 | 33815 ft | 411 kts | 246° |
| 2026-05-04 01:03 | 51.00830 | -53.81859 | 33816 ft | 412 kts | 246° |
| 2026-05-04 01:04 | 50.98539 | -53.90195 | 33815 ft | 412 kts | 246° |
| 2026-05-04 01:04 | 50.96239 | -53.98541 | 33819 ft | 413 kts | 246° |
| 2026-05-04 01:05 | 50.93929 | -54.06886 | 33813 ft | 414 kts | 245° |
| 2026-05-04 01:05 | 50.91605 | -54.15250 | 33817 ft | 415 kts | 245° |
| 2026-05-04 01:06 | 50.89274 | -54.23613 | 33814 ft | 415 kts | 245° |
| 2026-05-04 01:06 | 50.86933 | -54.31982 | 33814 ft | 416 kts | 245° |
| 2026-05-04 01:07 | 50.84587 | -54.40340 | 33815 ft | 415 kts | 245° |
| 2026-05-04 01:07 | 50.82234 | -54.48684 | 33813 ft | 415 kts | 244° |
| 2026-05-04 01:08 | 50.79878 | -54.57020 | 33815 ft | 415 kts | 244° |
| 2026-05-04 01:08 | 50.77516 | -54.65341 | 33807 ft | 415 kts | 244° |
| 2026-05-04 01:09 | 50.75150 | -54.73659 | 33806 ft | 415 kts | 244° |
| 2026-05-04 01:09 | 50.72779 | -54.81963 | 33804 ft | 415 kts | 244° |
| 2026-05-04 01:10 | 50.70400 | -54.90257 | 33796 ft | 415 kts | 244° |
| 2026-05-04 01:10 | 50.68015 | -54.98544 | 33795 ft | 415 kts | 243° |
| 2026-05-04 01:11 | 50.65652 | -55.06753 | 33787 ft | 414 kts | 243° |
| 2026-05-04 01:11 | 50.63240 | -55.14983 | 33762 ft | 411 kts | 243° |
| 2026-05-04 01:12 | 50.60842 | -55.23220 | 33801 ft | 417 kts | 243° |
| 2026-05-04 01:12 | 50.58488 | -55.31570 | 33766 ft | 420 kts | 243° |
| 2026-05-04 01:13 | 50.56010 | -55.39841 | 33798 ft | 415 kts | 242° |
| 2026-05-04 01:13 | 50.53486 | -55.48036 | 33790 ft | 417 kts | 242° |
| 2026-05-04 01:14 | 50.51064 | -55.56299 | 33802 ft | 418 kts | 243° |
| 2026-05-04 01:14 | 50.48672 | -55.64609 | 33801 ft | 416 kts | 243° |
| 2026-05-04 01:15 | 50.46272 | -55.72893 | 33769 ft | 417 kts | 242° |
| 2026-05-04 01:15 | 50.43824 | -55.81170 | 33787 ft | 419 kts | 241° |
| 2026-05-04 01:16 | 50.41313 | -55.89446 | 33758 ft | 421 kts | 241° |
| 2026-05-04 01:16 | 50.39235 | -55.96345 | 33804 ft | 422 kts | 240° |
| 2026-05-04 01:17 | 50.36771 | -56.04625 | 33799 ft | 419 kts | 241° |
| 2026-05-04 01:17 | 50.33881 | -56.14218 | 33787 ft | 420 kts | 240° |
| 2026-05-04 01:18 | 50.31361 | -56.22472 | 33790 ft | 420 kts | 240° |
| 2026-05-04 01:18 | 50.29264 | -56.29305 | 33798 ft | 414 kts | 240° |
| 2026-05-04 01:19 | 50.26777 | -56.37443 | 33796 ft | 414 kts | 240° |
| 2026-05-04 01:19 | 50.24346 | -56.45588 | 33787 ft | 414 kts | 241° |
| 2026-05-04 01:20 | 50.21860 | -56.53802 | 33788 ft | 419 kts | 240° |
| 2026-05-04 01:20 | 50.19269 | -56.61975 | 33788 ft | 422 kts | 240° |
| 2026-05-04 01:21 | 50.16678 | -56.70137 | 33794 ft | 419 kts | 239° |
| 2026-05-04 01:21 | 50.14122 | -56.78363 | 33785 ft | 422 kts | 241° |
| 2026-05-04 01:22 | 50.11692 | -56.86663 | 33785 ft | 423 kts | 240° |
| 2026-05-04 01:22 | 50.09117 | -56.94857 | 33756 ft | 415 kts | 238° |
| 2026-05-04 01:23 | 50.06493 | -57.02886 | 33780 ft | 418 kts | 239° |
| 2026-05-04 01:23 | 50.03948 | -57.11020 | 33773 ft | 419 kts | 239° |
| 2026-05-04 01:24 | 50.01399 | -57.19196 | 33757 ft | 420 kts | 239° |
| 2026-05-04 01:24 | 49.98832 | -57.27367 | 33752 ft | 421 kts | 238° |
| 2026-05-04 01:25 | 49.96242 | -57.35549 | 33744 ft | 422 kts | 238° |
| 2026-05-04 01:25 | 49.93639 | -57.43727 | 33739 ft | 423 kts | 238° |
| 2026-05-04 01:26 | 49.91028 | -57.51907 | 33739 ft | 423 kts | 238° |
| 2026-05-04 01:26 | 49.88416 | -57.60062 | 33732 ft | 422 kts | 237° |
| 2026-05-04 01:27 | 49.85798 | -57.68206 | 33727 ft | 422 kts | 237° |
| 2026-05-04 01:27 | 49.83177 | -57.76328 | 33721 ft | 421 kts | 237° |
| 2026-05-04 01:28 | 49.80557 | -57.84432 | 33723 ft | 420 kts | 237° |
| 2026-05-04 01:28 | 49.77939 | -57.92506 | 33719 ft | 419 kts | 237° |
| 2026-05-04 01:29 | 49.75316 | -58.00560 | 33722 ft | 419 kts | 237° |
| 2026-05-04 01:29 | 49.72691 | -58.08598 | 33720 ft | 419 kts | 237° |
| 2026-05-04 01:30 | 49.70058 | -58.16630 | 33722 ft | 419 kts | 237° |
| 2026-05-04 01:30 | 49.67418 | -58.24664 | 33719 ft | 420 kts | 237° |
| 2026-05-04 01:31 | 49.64764 | -58.32708 | 33722 ft | 421 kts | 237° |
| 2026-05-04 01:31 | 49.62101 | -58.40761 | 33723 ft | 422 kts | 236° |
| 2026-05-04 01:32 | 49.59442 | -58.48772 | 33722 ft | 423 kts | 236° |
| 2026-05-04 01:32 | 49.56753 | -58.56845 | 33723 ft | 424 kts | 236° |
| 2026-05-04 01:33 | 49.54047 | -58.64942 | 33716 ft | 426 kts | 236° |
| 2026-05-04 01:33 | 49.51330 | -58.73055 | 33711 ft | 427 kts | 236° |
| 2026-05-04 01:34 | 49.48604 | -58.81167 | 33713 ft | 428 kts | 236° |
| 2026-05-04 01:34 | 49.45865 | -58.89296 | 33712 ft | 428 kts | 235° |
| 2026-05-04 01:35 | 49.43118 | -58.97421 | 33713 ft | 429 kts | 235° |
| 2026-05-04 01:35 | 49.40357 | -59.05546 | 33709 ft | 430 kts | 235° |
| 2026-05-04 01:36 | 49.37587 | -59.13682 | 33705 ft | 430 kts | 235° |
| 2026-05-04 01:36 | 49.34810 | -59.21817 | 33702 ft | 431 kts | 235° |
| 2026-05-04 01:37 | 49.32027 | -59.29941 | 33704 ft | 431 kts | 234° |
| 2026-05-04 01:37 | 49.29233 | -59.38069 | 33695 ft | 431 kts | 234° |
| 2026-05-04 01:38 | 49.26432 | -59.46187 | 33694 ft | 431 kts | 234° |
| 2026-05-04 01:38 | 49.23632 | -59.54290 | 33692 ft | 431 kts | 234° |
| 2026-05-04 01:39 | 49.20821 | -59.62392 | 33664 ft | 432 kts | 234° |
| 2026-05-04 01:39 | 49.17994 | -59.70489 | 33663 ft | 432 kts | 234° |
| 2026-05-04 01:40 | 49.15228 | -59.78636 | 33655 ft | 431 kts | 234° |
| 2026-05-04 01:40 | 49.12368 | -59.86691 | 33627 ft | 434 kts | 234° |
| 2026-05-04 01:41 | 49.09505 | -59.94819 | 33630 ft | 434 kts | 233° |
| 2026-05-04 01:41 | 49.06609 | -60.02781 | 33628 ft | 434 kts | 233° |
| 2026-05-04 01:42 | 49.03707 | -60.10897 | 33628 ft | 436 kts | 233° |
| 2026-05-04 01:42 | 49.00803 | -60.19116 | 33574 ft | 444 kts | 234° |
| 2026-05-04 01:43 | 48.97950 | -60.27495 | 33572 ft | 444 kts | 234° |
| 2026-05-04 01:43 | 48.95057 | -60.35803 | 33565 ft | 444 kts | 233° |
| 2026-05-04 01:44 | 48.92056 | -60.43972 | 33551 ft | 442 kts | 232° |
| 2026-05-04 01:44 | 48.89091 | -60.52107 | 33558 ft | 438 kts | 233° |
| 2026-05-04 01:45 | 48.86172 | -60.60233 | 33542 ft | 439 kts | 233° |
| 2026-05-04 01:45 | 48.81755 | -60.72449 | 33542 ft | 441 kts | 232° |
| 2026-05-04 01:46 | 48.78782 | -60.80659 | 33532 ft | 443 kts | 233° |
| 2026-05-04 01:46 | 48.75856 | -60.88889 | 33521 ft | 445 kts | 232° |
| 2026-05-04 01:47 | 48.72816 | -60.97031 | 33533 ft | 446 kts | 232° |
| 2026-05-04 01:47 | 48.69760 | -61.05158 | 33511 ft | 443 kts | 232° |
| 2026-05-04 01:48 | 48.66770 | -61.13348 | 33499 ft | 446 kts | 234° |
| 2026-05-04 01:48 | 48.63789 | -61.21577 | 33516 ft | 446 kts | 232° |
| 2026-05-04 01:49 | 48.60739 | -61.29825 | 33534 ft | 451 kts | 233° |
| 2026-05-04 01:49 | 48.57679 | -61.38077 | 33502 ft | 451 kts | 232° |
| 2026-05-04 01:50 | 48.54561 | -61.46387 | 33438 ft | 458 kts | 232° |
| 2026-05-04 01:50 | 48.51463 | -61.54633 | 33419 ft | 450 kts | 232° |
| 2026-05-04 01:51 | 48.48323 | -61.62820 | 33419 ft | 451 kts | 232° |
| 2026-05-04 01:51 | 48.45282 | -61.71118 | 33382 ft | 452 kts | 232° |
| 2026-05-04 01:52 | 48.42165 | -61.79373 | 33383 ft | 453 kts | 232° |
| 2026-05-04 01:52 | 48.39139 | -61.87583 | 33430 ft | 454 kts | 233° |
| 2026-05-04 01:53 | 48.36195 | -61.96049 | 33429 ft | 459 kts | 234° |
| 2026-05-04 01:53 | 48.33225 | -62.04583 | 33421 ft | 463 kts | 234° |
| 2026-05-04 01:54 | 48.30210 | -62.13156 | 33430 ft | 464 kts | 234° |
| 2026-05-04 01:54 | 48.27172 | -62.21722 | 33422 ft | 465 kts | 233° |
| 2026-05-04 01:55 | 48.24129 | -62.30271 | 33421 ft | 464 kts | 233° |
| 2026-05-04 01:55 | 48.21086 | -62.38792 | 33419 ft | 462 kts | 234° |
| 2026-05-04 01:56 | 48.18057 | -62.47258 | 33419 ft | 460 kts | 233° |
| 2026-05-04 01:56 | 48.15020 | -62.55697 | 33418 ft | 459 kts | 233° |
| 2026-05-04 01:57 | 48.11987 | -62.64096 | 33426 ft | 458 kts | 233° |
| 2026-05-04 01:57 | 48.08951 | -62.72482 | 33430 ft | 458 kts | 233° |
| 2026-05-04 01:58 | 48.05910 | -62.80856 | 33433 ft | 459 kts | 233° |
| 2026-05-04 01:58 | 48.02854 | -62.89249 | 33435 ft | 460 kts | 233° |
| 2026-05-04 01:59 | 47.99785 | -62.97645 | 33445 ft | 461 kts | 233° |
| 2026-05-04 01:59 | 47.96762 | -63.05884 | 33443 ft | 465 kts | 233° |
| 2026-05-04 02:00 | 47.93847 | -63.13811 | 33453 ft | 468 kts | 233° |
| 2026-05-04 02:00 | 47.90702 | -63.22337 | 33481 ft | 471 kts | 233° |
| 2026-05-04 02:01 | 47.87531 | -63.30912 | 33496 ft | 473 kts | 233° |
| 2026-05-04 02:01 | 47.84341 | -63.39509 | 33511 ft | 475 kts | 233° |
| 2026-05-04 02:02 | 47.81137 | -63.48119 | 33529 ft | 476 kts | 233° |
| 2026-05-04 02:02 | 47.77927 | -63.56713 | 33531 ft | 475 kts | 233° |
| 2026-05-04 02:03 | 47.74737 | -63.65226 | 33539 ft | 474 kts | 233° |
| 2026-05-04 02:03 | 47.71523 | -63.73772 | 33536 ft | 473 kts | 233° |
| 2026-05-04 02:04 | 47.68311 | -63.82288 | 33529 ft | 472 kts | 233° |
| 2026-05-04 02:04 | 47.65099 | -63.90775 | 33531 ft | 472 kts | 233° |
| 2026-05-04 02:05 | 47.61883 | -63.99248 | 33516 ft | 471 kts | 233° |
| 2026-05-04 02:05 | 47.58659 | -64.07714 | 33509 ft | 472 kts | 233° |
| 2026-05-04 02:06 | 47.55972 | -64.14749 | 33522 ft | 473 kts | 233° |
| 2026-05-04 02:06 | 47.52723 | -64.23229 | 33510 ft | 474 kts | 233° |
| 2026-05-04 02:07 | 47.49461 | -64.31718 | 33507 ft | 475 kts | 233° |
| 2026-05-04 02:07 | 47.46181 | -64.40225 | 33499 ft | 477 kts | 233° |
| 2026-05-04 02:08 | 47.42892 | -64.48734 | 33495 ft | 477 kts | 233° |
| 2026-05-04 02:08 | 47.39600 | -64.57225 | 33543 ft | 476 kts | 233° |
| 2026-05-04 02:09 | 47.36305 | -64.65692 | 33547 ft | 476 kts | 234° |
| 2026-05-04 02:09 | 47.33002 | -64.74152 | 33569 ft | 476 kts | 233° |
| 2026-05-04 02:10 | 47.29697 | -64.82593 | 33578 ft | 476 kts | 234° |
| 2026-05-04 02:10 | 47.26381 | -64.91034 | 33584 ft | 476 kts | 234° |
| 2026-05-04 02:11 | 47.23059 | -64.99462 | 33583 ft | 476 kts | 234° |
| 2026-05-04 02:11 | 47.19729 | -65.07889 | 33581 ft | 477 kts | 234° |
| 2026-05-04 02:12 | 47.16386 | -65.16319 | 33582 ft | 477 kts | 234° |
| 2026-05-04 02:12 | 47.13041 | -65.24731 | 33593 ft | 477 kts | 234° |
| 2026-05-04 02:13 | 47.09689 | -65.33135 | 33585 ft | 477 kts | 234° |
| 2026-05-04 02:13 | 47.06326 | -65.41537 | 33577 ft | 477 kts | 234° |
| 2026-05-04 02:14 | 47.02961 | -65.49919 | 33589 ft | 477 kts | 234° |
| 2026-05-04 02:14 | 46.99592 | -65.58287 | 33580 ft | 477 kts | 234° |
| 2026-05-04 02:15 | 46.96217 | -65.66641 | 33585 ft | 476 kts | 234° |
| 2026-05-04 02:15 | 46.92840 | -65.74979 | 33578 ft | 476 kts | 234° |
| 2026-05-04 02:16 | 46.89456 | -65.83309 | 33584 ft | 476 kts | 234° |
| 2026-05-04 02:16 | 46.86088 | -65.91570 | 33577 ft | 476 kts | 234° |
| 2026-05-04 02:17 | 46.82690 | -65.99873 | 33580 ft | 476 kts | 234° |
| 2026-05-04 02:17 | 46.79293 | -66.08152 | 33596 ft | 475 kts | 235° |
| 2026-05-04 02:18 | 46.75903 | -66.16402 | 33620 ft | 474 kts | 235° |
| 2026-05-04 02:18 | 46.72506 | -66.24639 | 33615 ft | 474 kts | 235° |
| 2026-05-04 02:19 | 46.69095 | -66.32869 | 33612 ft | 474 kts | 235° |
| 2026-05-04 02:19 | 46.65769 | -66.41142 | 33580 ft | 474 kts | 236° |
| 2026-05-04 02:20 | 46.62355 | -66.49332 | 33626 ft | 473 kts | 234° |
| 2026-05-04 02:20 | 46.58893 | -66.57436 | 33640 ft | 472 kts | 235° |
| 2026-05-04 02:21 | 46.55473 | -66.65628 | 33637 ft | 474 kts | 235° |
| 2026-05-04 02:21 | 46.51959 | -66.73739 | 33630 ft | 477 kts | 236° |
| 2026-05-04 02:22 | 46.48588 | -66.82034 | 33654 ft | 476 kts | 236° |
| 2026-05-04 02:22 | 46.45125 | -66.90225 | 33641 ft | 475 kts | 235° |
| 2026-05-04 02:23 | 46.41621 | -66.98367 | 33628 ft | 478 kts | 234° |
| 2026-05-04 02:23 | 46.38157 | -67.06501 | 33662 ft | 474 kts | 235° |
| 2026-05-04 02:24 | 46.34665 | -67.14644 | 33651 ft | 477 kts | 235° |
| 2026-05-04 02:24 | 46.31205 | -67.22797 | 33654 ft | 474 kts | 236° |
| 2026-05-04 02:25 | 46.27815 | -67.30826 | 33655 ft | 469 kts | 236° |
| 2026-05-04 02:25 | 46.24399 | -67.38846 | 33665 ft | 468 kts | 235° |
| 2026-05-04 02:26 | 46.20931 | -67.46781 | 33686 ft | 469 kts | 236° |
| 2026-05-04 02:26 | 46.17462 | -67.54819 | 33647 ft | 472 kts | 235° |
| 2026-05-04 02:27 | 46.13937 | -67.62873 | 33647 ft | 477 kts | 236° |
| 2026-05-04 02:27 | 46.10404 | -67.70988 | 33649 ft | 479 kts | 236° |
| 2026-05-04 02:28 | 46.06892 | -67.79048 | 33648 ft | 473 kts | 236° |
| 2026-05-04 02:28 | 46.03373 | -67.87058 | 33660 ft | 473 kts | 236° |
| 2026-05-04 02:29 | 45.99868 | -67.95069 | 33655 ft | 473 kts | 236° |
| 2026-05-04 02:29 | 45.96342 | -68.03080 | 33663 ft | 475 kts | 236° |
| 2026-05-04 02:30 | 45.92810 | -68.11101 | 33668 ft | 475 kts | 236° |
| 2026-05-04 02:30 | 45.89271 | -68.19109 | 33681 ft | 475 kts | 236° |
| 2026-05-04 02:31 | 45.85718 | -68.27096 | 33686 ft | 474 kts | 236° |
| 2026-05-04 02:31 | 45.82175 | -68.35054 | 33689 ft | 474 kts | 236° |
| 2026-05-04 02:32 | 45.78634 | -68.42995 | 33702 ft | 472 kts | 236° |
| 2026-05-04 02:32 | 45.75094 | -68.50908 | 33709 ft | 471 kts | 236° |
| 2026-05-04 02:33 | 45.71555 | -68.58793 | 33720 ft | 471 kts | 236° |
| 2026-05-04 02:33 | 45.68013 | -68.66661 | 33725 ft | 470 kts | 236° |
| 2026-05-04 02:34 | 45.64466 | -68.74518 | 33722 ft | 470 kts | 236° |
| 2026-05-04 02:34 | 45.60917 | -68.82360 | 33722 ft | 470 kts | 236° |
| 2026-05-04 02:35 | 45.57359 | -68.90206 | 33727 ft | 471 kts | 236° |
| 2026-05-04 02:35 | 45.53791 | -68.98041 | 33724 ft | 471 kts | 236° |
| 2026-05-04 02:36 | 45.50212 | -69.05875 | 33719 ft | 471 kts | 236° |
| 2026-05-04 02:36 | 45.46660 | -69.13644 | 33719 ft | 470 kts | 236° |
| 2026-05-04 02:37 | 45.43061 | -69.21489 | 33726 ft | 470 kts | 236° |
| 2026-05-04 02:37 | 45.39480 | -69.29263 | 33727 ft | 469 kts | 235° |
| 2026-05-04 02:38 | 45.35921 | -69.36973 | 33724 ft | 470 kts | 235° |
| 2026-05-04 02:38 | 45.32335 | -69.44729 | 33725 ft | 470 kts | 235° |
| 2026-05-04 02:39 | 45.28742 | -69.52482 | 33722 ft | 469 kts | 235° |
| 2026-05-04 02:39 | 45.25143 | -69.60215 | 33725 ft | 469 kts | 235° |
| 2026-05-04 02:40 | 45.21544 | -69.67931 | 33733 ft | 469 kts | 235° |
| 2026-05-04 02:40 | 45.17942 | -69.75628 | 33735 ft | 468 kts | 235° |
| 2026-05-04 02:41 | 45.14336 | -69.83320 | 33743 ft | 469 kts | 235° |
| 2026-05-04 02:41 | 45.11573 | -69.89195 | 33762 ft | 469 kts | 235° |
| 2026-05-04 02:42 | 45.07963 | -69.96858 | 33759 ft | 468 kts | 235° |
| 2026-05-04 02:42 | 45.04334 | -70.04532 | 33783 ft | 469 kts | 236° |
| 2026-05-04 02:43 | 45.00702 | -70.12199 | 33784 ft | 469 kts | 236° |
| 2026-05-04 02:43 | 44.97068 | -70.19851 | 33782 ft | 469 kts | 236° |
| 2026-05-04 02:44 | 44.93433 | -70.27483 | 33783 ft | 468 kts | 236° |
| 2026-05-04 02:44 | 44.89802 | -70.35084 | 33785 ft | 467 kts | 236° |
| 2026-05-04 02:45 | 44.86171 | -70.42670 | 33795 ft | 467 kts | 236° |
| 2026-05-04 02:45 | 44.82537 | -70.50241 | 33796 ft | 466 kts | 236° |
| 2026-05-04 02:46 | 44.78901 | -70.57792 | 33797 ft | 466 kts | 236° |
| 2026-05-04 02:46 | 44.75265 | -70.65323 | 33802 ft | 465 kts | 236° |
| 2026-05-04 02:47 | 44.71625 | -70.72850 | 33808 ft | 465 kts | 236° |
| 2026-05-04 02:47 | 44.67980 | -70.80363 | 33810 ft | 465 kts | 236° |
| 2026-05-04 02:48 | 44.64327 | -70.87868 | 33818 ft | 466 kts | 236° |
| 2026-05-04 02:48 | 44.60661 | -70.95387 | 33819 ft | 466 kts | 236° |
| 2026-05-04 02:49 | 44.56993 | -71.02889 | 33827 ft | 466 kts | 236° |
| 2026-05-04 02:49 | 44.53317 | -71.10384 | 33825 ft | 467 kts | 236° |
| 2026-05-04 02:50 | 44.49639 | -71.17869 | 33821 ft | 466 kts | 236° |
| 2026-05-04 02:50 | 44.45960 | -71.25337 | 33824 ft | 466 kts | 236° |
| 2026-05-04 02:51 | 44.42277 | -71.32791 | 33833 ft | 465 kts | 236° |
| 2026-05-04 02:51 | 44.38592 | -71.40229 | 33831 ft | 465 kts | 236° |
| 2026-05-04 02:52 | 44.35529 | -71.46403 | 33836 ft | 465 kts | 236° |
| 2026-05-04 02:52 | 44.31242 | -71.55014 | 33845 ft | 464 kts | 236° |
| 2026-05-04 02:53 | 44.28154 | -71.61206 | 33843 ft | 464 kts | 236° |
| 2026-05-04 02:53 | 44.24748 | -71.68014 | 33843 ft | 464 kts | 236° |
| 2026-05-04 02:54 | 44.21051 | -71.75387 | 33843 ft | 464 kts | 236° |
| 2026-05-04 02:54 | 44.17255 | -71.82661 | 33854 ft | 464 kts | 235° |
| 2026-05-04 02:55 | 44.11481 | -71.93472 | 33848 ft | 464 kts | 235° |
| 2026-05-04 02:56 | 44.07631 | -72.00693 | 33850 ft | 464 kts | 235° |
| 2026-05-04 02:56 | 44.03784 | -72.07907 | 33861 ft | 464 kts | 235° |
| 2026-05-04 02:57 | 43.99942 | -72.15104 | 33873 ft | 464 kts | 235° |
| 2026-05-04 02:57 | 43.96098 | -72.22288 | 33871 ft | 464 kts | 235° |
| 2026-05-04 02:58 | 43.92246 | -72.29466 | 33870 ft | 464 kts | 235° |
| 2026-05-04 02:58 | 43.88392 | -72.36630 | 33886 ft | 463 kts | 235° |
| 2026-05-04 02:59 | 43.84532 | -72.43789 | 33877 ft | 464 kts | 235° |
| 2026-05-04 02:59 | 43.80694 | -72.50888 | 33885 ft | 463 kts | 235° |
| 2026-05-04 03:00 | 43.76831 | -72.58016 | 33881 ft | 463 kts | 235° |
| 2026-05-04 03:00 | 43.72971 | -72.65127 | 33879 ft | 462 kts | 235° |
| 2026-05-04 03:01 | 43.69099 | -72.72232 | 33883 ft | 462 kts | 235° |
| 2026-05-04 03:01 | 43.65232 | -72.79314 | 33894 ft | 462 kts | 235° |
| 2026-05-04 03:02 | 43.61362 | -72.86386 | 33896 ft | 461 kts | 235° |
| 2026-05-04 03:02 | 43.57488 | -72.93450 | 33883 ft | 461 kts | 235° |
| 2026-05-04 03:03 | 43.53613 | -73.00499 | 33892 ft | 461 kts | 235° |
| 2026-05-04 03:03 | 43.49738 | -73.07533 | 33895 ft | 461 kts | 235° |
| 2026-05-04 03:04 | 43.45862 | -73.14551 | 33885 ft | 460 kts | 235° |
| 2026-05-04 03:04 | 43.41982 | -73.21554 | 33892 ft | 460 kts | 235° |
| 2026-05-04 03:05 | 43.38101 | -73.28542 | 33899 ft | 459 kts | 235° |
| 2026-05-04 03:05 | 43.34219 | -73.35520 | 33904 ft | 460 kts | 235° |
| 2026-05-04 03:06 | 43.30335 | -73.42487 | 33905 ft | 460 kts | 235° |
| 2026-05-04 03:06 | 43.26441 | -73.49454 | 33909 ft | 460 kts | 235° |
| 2026-05-04 03:07 | 43.22571 | -73.56362 | 33909 ft | 460 kts | 235° |
| 2026-05-04 03:07 | 43.20475 | -73.59654 | 33895 ft | 461 kts | 224° |
| 2026-05-04 03:07 | 43.17831 | -73.62166 | 33915 ft | 467 kts | 209° |
| 2026-05-04 03:08 | 43.11622 | -73.64902 | 33904 ft | 471 kts | 199° |
| 2026-05-04 03:08 | 43.05316 | -73.67447 | 33919 ft | 474 kts | 200° |
| 2026-05-04 03:09 | 42.98994 | -73.70098 | 33914 ft | 476 kts | 201° |
| 2026-05-04 03:09 | 42.92663 | -73.72776 | 33915 ft | 476 kts | 201° |
| 2026-05-04 03:10 | 42.86334 | -73.75444 | 33920 ft | 476 kts | 201° |
| 2026-05-04 03:10 | 42.80032 | -73.78090 | 33913 ft | 465 kts | 201° |
| 2026-05-04 03:11 | 42.73900 | -73.80668 | 33927 ft | 464 kts | 202° |
| 2026-05-04 03:11 | 42.67768 | -73.83392 | 33928 ft | 464 kts | 203° |
| 2026-05-04 03:12 | 42.61638 | -73.86175 | 33929 ft | 464 kts | 203° |
| 2026-05-04 03:12 | 42.55498 | -73.88941 | 33929 ft | 465 kts | 203° |
| 2026-05-04 03:13 | 42.49349 | -73.91689 | 33927 ft | 466 kts | 203° |
| 2026-05-04 03:13 | 42.43191 | -73.94432 | 33922 ft | 466 kts | 203° |
| 2026-05-04 03:14 | 42.37030 | -73.97171 | 33923 ft | 466 kts | 203° |
| 2026-05-04 03:14 | 42.30953 | -73.99870 | 33931 ft | 466 kts | 203° |
| 2026-05-04 03:15 | 42.27662 | -74.01331 | 33930 ft | 466 kts | 203° |
| 2026-05-04 03:16 | 42.24082 | -74.02914 | 33945 ft | 466 kts | 203° |
| 2026-05-04 03:16 | 42.17926 | -74.05634 | 33936 ft | 465 kts | 203° |
| 2026-05-04 03:17 | 42.11825 | -74.08324 | 33921 ft | 453 kts | 203° |
| 2026-05-04 03:17 | 42.08845 | -74.09636 | 33558 ft | 448 kts | 203° |
| 2026-05-04 03:17 | 42.05901 | -74.10935 | 33116 ft | 444 kts | 203° |
| 2026-05-04 03:17 | 42.02976 | -74.12220 | 32643 ft | 440 kts | 203° |
| 2026-05-04 03:18 | 42.00078 | -74.13489 | 32172 ft | 436 kts | 203° |
| 2026-05-04 03:18 | 41.97202 | -74.14749 | 31698 ft | 433 kts | 203° |
| 2026-05-04 03:18 | 41.94350 | -74.15998 | 31229 ft | 429 kts | 203° |
| 2026-05-04 03:18 | 41.91522 | -74.17238 | 30762 ft | 426 kts | 203° |
| 2026-05-04 03:19 | 41.88706 | -74.18470 | 30291 ft | 423 kts | 203° |
| 2026-05-04 03:19 | 41.85919 | -74.19687 | 29825 ft | 420 kts | 204° |
| 2026-05-04 03:19 | 41.83145 | -74.20897 | 29367 ft | 418 kts | 204° |
| 2026-05-04 03:19 | 41.80391 | -74.22097 | 28908 ft | 415 kts | 204° |
| 2026-05-04 03:20 | 41.77655 | -74.23289 | 28447 ft | 412 kts | 204° |
| 2026-05-04 03:20 | 41.74939 | -74.24474 | 27988 ft | 409 kts | 204° |
| 2026-05-04 03:20 | 41.72240 | -74.25649 | 27530 ft | 407 kts | 204° |
| 2026-05-04 03:20 | 41.69556 | -74.26817 | 27073 ft | 405 kts | 204° |
| 2026-05-04 03:21 | 41.66887 | -74.27976 | 26632 ft | 402 kts | 204° |
| 2026-05-04 03:21 | 41.64240 | -74.29124 | 26201 ft | 399 kts | 204° |
| 2026-05-04 03:21 | 41.61630 | -74.30255 | 25768 ft | 396 kts | 204° |
| 2026-05-04 03:21 | 41.59022 | -74.31387 | 25337 ft | 393 kts | 204° |
| 2026-05-04 03:22 | 41.56424 | -74.32512 | 24903 ft | 391 kts | 204° |
| 2026-05-04 03:22 | 41.53866 | -74.33616 | 24481 ft | 388 kts | 204° |
| 2026-05-04 03:22 | 41.51306 | -74.34722 | 24056 ft | 386 kts | 204° |
| 2026-05-04 03:22 | 41.48760 | -74.35821 | 23638 ft | 383 kts | 205° |
| 2026-05-04 03:23 | 41.46237 | -74.36910 | 23217 ft | 380 kts | 205° |
| 2026-05-04 03:23 | 41.43724 | -74.37994 | 22805 ft | 378 kts | 204° |
| 2026-05-04 03:23 | 41.41253 | -74.39058 | 22407 ft | 375 kts | 205° |
| 2026-05-04 03:23 | 41.39108 | -74.39982 | 22044 ft | 373 kts | 205° |
| 2026-05-04 03:24 | 41.36671 | -74.41030 | 21637 ft | 372 kts | 205° |
| 2026-05-04 03:24 | 41.34218 | -74.42085 | 21219 ft | 370 kts | 205° |
| 2026-05-04 03:24 | 41.32001 | -74.43038 | 20849 ft | 368 kts | 205° |
| 2026-05-04 03:24 | 41.29648 | -74.44048 | 20469 ft | 368 kts | 204° |
| 2026-05-04 03:25 | 41.27221 | -74.45089 | 20191 ft | 365 kts | 205° |
| 2026-05-04 03:25 | 41.24823 | -74.46113 | 19930 ft | 361 kts | 204° |
| 2026-05-04 03:25 | 41.22447 | -74.47128 | 19627 ft | 360 kts | 204° |
| 2026-05-04 03:25 | 41.20182 | -74.48097 | 19311 ft | 359 kts | 204° |
| 2026-05-04 03:26 | 41.17814 | -74.49111 | 18997 ft | 357 kts | 204° |
| 2026-05-04 03:26 | 41.15455 | -74.50119 | 18680 ft | 355 kts | 204° |
| 2026-05-04 03:26 | 41.13105 | -74.51122 | 18385 ft | 354 kts | 204° |
| 2026-05-04 03:26 | 41.10768 | -74.52117 | 18047 ft | 352 kts | 204° |
| 2026-05-04 03:27 | 41.08508 | -74.53077 | 17734 ft | 352 kts | 203° |
| 2026-05-04 03:27 | 41.06111 | -74.53841 | 17429 ft | 356 kts | 196° |
| 2026-05-04 03:27 | 41.03643 | -74.54191 | 17125 ft | 358 kts | 190° |
| 2026-05-04 03:27 | 41.01166 | -74.54400 | 16831 ft | 355 kts | 189° |
| 2026-05-04 03:28 | 40.98713 | -74.54601 | 16478 ft | 351 kts | 189° |
| 2026-05-04 03:28 | 40.96288 | -74.54809 | 16114 ft | 348 kts | 190° |
| 2026-05-04 03:28 | 40.93883 | -74.55021 | 15738 ft | 344 kts | 190° |
| 2026-05-04 03:28 | 40.91501 | -74.55238 | 15360 ft | 341 kts | 190° |
| 2026-05-04 03:29 | 40.89141 | -74.55455 | 15000 ft | 338 kts | 190° |
| 2026-05-04 03:29 | 40.86804 | -74.55670 | 14637 ft | 336 kts | 190° |
| 2026-05-04 03:29 | 40.84492 | -74.55881 | 14272 ft | 332 kts | 190° |
| 2026-05-04 03:29 | 40.82191 | -74.56035 | 13902 ft | 331 kts | 186° |
| 2026-05-04 03:30 | 40.79892 | -74.55960 | 13549 ft | 329 kts | 182° |
| 2026-05-04 03:30 | 40.77611 | -74.55804 | 13217 ft | 329 kts | 182° |
| 2026-05-04 03:30 | 40.75321 | -74.55644 | 12862 ft | 332 kts | 182° |
| 2026-05-04 03:30 | 40.72987 | -74.55493 | 12514 ft | 340 kts | 182° |
| 2026-05-04 03:31 | 40.70610 | -74.55359 | 12143 ft | 343 kts | 182° |
| 2026-05-04 03:31 | 40.68231 | -74.55229 | 11767 ft | 341 kts | 182° |
| 2026-05-04 03:31 | 40.65872 | -74.55107 | 11391 ft | 338 kts | 182° |
| 2026-05-04 03:31 | 40.63573 | -74.54661 | 10933 ft | 337 kts | 162° |
| 2026-05-04 03:32 | 40.61603 | -74.53001 | 10560 ft | 340 kts | 135° |
| 2026-05-04 03:32 | 40.60326 | -74.50451 | 10391 ft | 329 kts | 110° |
| 2026-05-04 03:32 | 40.59852 | -74.47587 | 10228 ft | 314 kts | 87° |
| 2026-05-04 03:32 | 40.60157 | -74.44849 | 10094 ft | 294 kts | 65° |
| 2026-05-04 03:33 | 40.61042 | -74.42538 | 9954 ft | 276 kts | 50° |
| 2026-05-04 03:33 | 40.62280 | -74.40650 | 9648 ft | 271 kts | 31° |
| 2026-05-04 03:33 | 40.63847 | -74.39294 | 9399 ft | 274 kts | 25° |
| 2026-05-04 03:33 | 40.65495 | -74.38003 | 9072 ft | 277 kts | 25° |
| 2026-05-04 03:34 | 40.67144 | -74.36712 | 8753 ft | 274 kts | 24° |
| 2026-05-04 03:34 | 40.68763 | -74.35438 | 8425 ft | 269 kts | 25° |
| 2026-05-04 03:34 | 40.70347 | -74.34183 | 8135 ft | 263 kts | 25° |
| 2026-05-04 03:34 | 40.71377 | -74.33364 | 7941 ft | 260 kts | 25° |
| 2026-05-04 03:35 | 40.72914 | -74.32142 | 7644 ft | 258 kts | 24° |
| 2026-05-04 03:35 | 40.74093 | -74.31205 | 7441 ft | 262 kts | 25° |
| 2026-05-04 03:35 | 40.75302 | -74.30236 | 7250 ft | 264 kts | 25° |
| 2026-05-04 03:35 | 40.76820 | -74.29021 | 6980 ft | 267 kts | 25° |
| 2026-05-04 03:36 | 40.78396 | -74.27757 | 6677 ft | 264 kts | 25° |
| 2026-05-04 03:36 | 40.79767 | -74.26660 | 6406 ft | 261 kts | 25° |
| 2026-05-04 03:36 | 40.81296 | -74.25434 | 6159 ft | 261 kts | 26° |
| 2026-05-04 03:36 | 40.82643 | -74.24351 | 5910 ft | 263 kts | 26° |
| 2026-05-04 03:37 | 40.84076 | -74.23195 | 5635 ft | 266 kts | 26° |
| 2026-05-04 03:37 | 40.85401 | -74.22128 | 5365 ft | 265 kts | 26° |
| 2026-05-04 03:37 | 40.86966 | -74.20866 | 5042 ft | 263 kts | 26° |
| 2026-05-04 03:37 | 40.88522 | -74.19609 | 4773 ft | 261 kts | 26° |
| 2026-05-04 03:38 | 40.89874 | -74.18289 | 4460 ft | 260 kts | 46° |
| 2026-05-04 03:38 | 40.90550 | -74.16719 | 4252 ft | 266 kts | 72° |
| 2026-05-04 03:38 | 40.90622 | -74.14273 | 4003 ft | 273 kts | 104° |
| 2026-05-04 03:38 | 40.89767 | -74.12099 | 3900 ft | 263 kts | 135° |
| 2026-05-04 03:39 | 40.88354 | -74.10733 | 3728 ft | 242 kts | 155° |
| 2026-05-04 03:39 | 40.86932 | -74.09688 | 3549 ft | 225 kts | 155° |
| 2026-05-04 03:39 | 40.85634 | -74.08717 | 3289 ft | 204 kts | 155° |
| 2026-05-04 03:39 | 40.84444 | -74.07895 | 3060 ft | 179 kts | 168° |
| 2026-05-04 03:40 | 40.83359 | -74.07923 | 2860 ft | 144 kts | 210° |
| 2026-05-04 03:40 | 40.82429 | -74.08438 | 2723 ft | 149 kts | 206° |
| 2026-05-04 03:40 | 40.81449 | -74.08892 | 2511 ft | 149 kts | 204° |
| 2026-05-04 03:40 | 40.80486 | -74.09365 | 2315 ft | 146 kts | 206° |
| 2026-05-04 03:41 | 40.79567 | -74.09906 | 2125 ft | 144 kts | 208° |
| 2026-05-04 03:41 | 40.78661 | -74.10473 | 1933 ft | 144 kts | 208° |
| 2026-05-04 03:41 | 40.77753 | -74.11053 | 1741 ft | 145 kts | 207° |
| 2026-05-04 03:41 | 40.76958 | -74.11559 | 1577 ft | 145 kts | 207° |
| 2026-05-04 03:42 | 40.76145 | -74.12077 | 1409 ft | 144 kts | 208° |
| 2026-05-04 03:42 | 40.75462 | -74.12510 | 1262 ft | 144 kts | 206° |
| 2026-05-04 03:42 | 40.74870 | -74.12873 | 1138 ft | 142 kts | 207° |
| 2026-05-04 03:42 | 40.74385 | -74.13181 | 1028 ft | 141 kts | 207° |
| 2026-05-04 03:43 | 40.73978 | -74.13447 | 900 ft | 133 kts | 208° |
| 2026-05-04 03:43 | 40.73605 | -74.13695 | 737 ft | 128 kts | 208° |
| 2026-05-04 03:43 | 40.73084 | -74.14032 | 504 ft | 127 kts | 207° |
| 2026-05-04 03:43 | 40.72332 | -74.14504 | 527 ft | 140 kts | 205° |
| 2026-05-04 03:44 | 40.71587 | -74.14997 | 393 ft | 133 kts | 207° |
| 2026-05-04 03:44 | 40.70706 | -74.15535 | 297 ft | 145 kts | 208° |
| 2026-05-04 03:44 | 40.69812 | -74.16127 | 66 ft | 145 kts | 206° |
| 2026-05-04 03:44 | 40.68979 | -74.16656 | 27 ft | 127 kts | 205° |
| 2026-05-04 03:45 | 40.68341 | -74.17058 | 27 ft | 73 kts | 206° |
| 2026-05-04 03:45 | 40.68015 | -74.17277 | 27 ft | 37 kts | 221° |
| 2026-05-04 03:45 | 40.67956 | -74.17445 | 31 ft | 22 kts | 262° |
| 2026-05-04 03:45 | 40.67975 | -74.17605 | 28 ft | 22 kts | 293° |
| 2026-05-04 03:46 | 40.68038 | -74.17780 | 26 ft | 20 kts | 296° |
| 2026-05-04 03:46 | 40.68084 | -74.17884 | 27 ft | 12 kts | 309° |
| 2026-05-04 03:46 | 40.68132 | -74.17952 | 27 ft | 12 kts | 314° |
| 2026-05-04 03:46 | 40.68158 | -74.18013 | 27 ft | 6 kts | 278° |
| 2026-05-04 03:47 | 40.68134 | -74.18043 | 26 ft | 6 kts | 199° |
| 2026-05-04 03:47 | 40.68092 | -74.18063 | 27 ft | 6 kts | 205° |
| 2026-05-04 03:47 | 40.68054 | -74.18087 | 27 ft | 6 kts | 206° |
| 2026-05-04 03:47 | 40.68014 | -74.18112 | 27 ft | 6 kts | 206° |
| 2026-05-04 03:48 | 40.67974 | -74.18138 | 27 ft | 6 kts | 206° |
| 2026-05-04 03:48 | 40.67939 | -74.18160 | 27 ft | 6 kts | 206° |
| 2026-05-04 03:48 | 40.67905 | -74.18182 | 27 ft | 7 kts | 206° |
| 2026-05-04 03:48 | 40.67869 | -74.18206 | 27 ft | 7 kts | 206° |
| 2026-05-04 03:49 | 40.67829 | -74.18231 | 27 ft | 7 kts | 206° |
| 2026-05-04 03:49 | 40.67788 | -74.18258 | 26 ft | 7 kts | 206° |
| 2026-05-04 03:49 | 40.67747 | -74.18256 | 27 ft | 7 kts | 169° |
| 2026-05-04 03:49 | 40.67707 | -74.18266 | 27 ft | 7 kts | 200° |
| 2026-05-04 03:50 | 40.67675 | -74.18286 | 27 ft | 3 kts | 206° |
| 2026-05-04 03:50 | 40.67663 | -74.18293 | 27 ft | 1 kts | 206° |
| 2026-05-04 03:50 | 40.67658 | -74.18297 | 26 ft | 0 kts | 206° |